UAE461 OMDB-HKJK
Flight info
| Callsign | UAE461 |
|---|---|
| Flight time | N/A |
| Altitude | 34000 |
| Route | ANVIX7F ANVIX R401 GIDIS G783 ELUDA/N0480F360 G783 UKRAG/N0482F370 L710 KUKDI/N0483F380 B400 RIGAM B403 BOMIX UB403 MAV UP312 WAV WAJI1A |
| Aircraft | B77W/H-SDE1E2E3FGHIJ2J3J4J5M1RWXY/LB1D1 |
Departure
| Time | 2026-04-20 15:39 |
|---|---|
| Airport | Dubai International Airport (OMDB) |
Arrival
| Time | N/A |
|---|---|
| Airport | Jomo Kenyatta International Airport (HKJK) |
| Time | Latitude | Longitude | Altitude | Speed | Heading |
|---|---|---|---|---|---|
| 2026-04-20 15:29 | 25.24355 | 55.37747 | 48 ft | 25 kts | 122° |
| 2026-04-20 15:29 | 25.24248 | 55.37943 | 48 ft | 35 kts | 122° |
| 2026-04-20 15:29 | 25.24121 | 55.38173 | 48 ft | 40 kts | 121° |
| 2026-04-20 15:29 | 25.23999 | 55.38393 | 48 ft | 29 kts | 121° |
| 2026-04-20 15:30 | 25.23880 | 55.38609 | 48 ft | 34 kts | 121° |
| 2026-04-20 15:30 | 25.23736 | 55.38870 | 48 ft | 43 kts | 121° |
| 2026-04-20 15:30 | 25.23585 | 55.39139 | 48 ft | 33 kts | 122° |
| 2026-04-20 15:30 | 25.23458 | 55.39365 | 48 ft | 16 kts | 115° |
| 2026-04-20 15:31 | 25.23463 | 55.39420 | 48 ft | 3 kts | 44° |
| 2026-04-20 15:31 | 25.23470 | 55.39425 | 48 ft | 0 kts | 33° |
| 2026-04-20 15:32 | 25.23471 | 55.39425 | 48 ft | 0 kts | 33° |
| 2026-04-20 15:33 | 25.23471 | 55.39426 | 48 ft | 0 kts | 33° |
| 2026-04-20 15:34 | 25.23472 | 55.39426 | 48 ft | 0 kts | 33° |
| 2026-04-20 15:35 | 25.23473 | 55.39427 | 48 ft | 0 kts | 33° |
| 2026-04-20 15:37 | 25.23515 | 55.39457 | 48 ft | 18 kts | 33° |
| 2026-04-20 15:37 | 25.23601 | 55.39480 | 48 ft | 10 kts | 327° |
| 2026-04-20 15:37 | 25.23649 | 55.39390 | 48 ft | 12 kts | 300° |
| 2026-04-20 15:37 | 25.23657 | 55.39376 | 48 ft | 0 kts | 302° |
| 2026-04-20 15:38 | 25.23761 | 55.39190 | 48 ft | 78 kts | 302° |
| 2026-04-20 15:38 | 25.24237 | 55.38328 | 48 ft | 180 kts | 301° |
| 2026-04-20 15:38 | 25.25002 | 55.36952 | 434 ft | 232 kts | 302° |
| 2026-04-20 15:39 | 25.25883 | 55.35395 | 1723 ft | 237 kts | 303° |
| 2026-04-20 15:39 | 25.26790 | 55.33872 | 3029 ft | 239 kts | 304° |
| 2026-04-20 15:39 | 25.27731 | 55.32332 | 3701 ft | 247 kts | 305° |
| 2026-04-20 15:39 | 25.28675 | 55.30712 | 3958 ft | 254 kts | 300° |
| 2026-04-20 15:40 | 25.29130 | 55.28836 | 3988 ft | 256 kts | 275° |
| 2026-04-20 15:40 | 25.28795 | 55.26917 | 4244 ft | 257 kts | 253° |
| 2026-04-20 15:40 | 25.28008 | 55.25094 | 5142 ft | 267 kts | 244° |
| 2026-04-20 15:40 | 25.27017 | 55.23345 | 6245 ft | 271 kts | 240° |
| 2026-04-20 15:41 | 25.25923 | 55.21629 | 7272 ft | 276 kts | 237° |
| 2026-04-20 15:41 | 25.24465 | 55.20182 | 8107 ft | 291 kts | 215° |
| 2026-04-20 15:41 | 25.22524 | 55.19504 | 9090 ft | 299 kts | 189° |
| 2026-04-20 15:41 | 25.20487 | 55.19799 | 10361 ft | 297 kts | 165° |
| 2026-04-20 15:42 | 25.18696 | 55.20959 | 11282 ft | 306 kts | 142° |
| 2026-04-20 15:42 | 25.17364 | 55.22861 | 11837 ft | 324 kts | 118° |
| 2026-04-20 15:42 | 25.16541 | 55.25243 | 12326 ft | 341 kts | 109° |
| 2026-04-20 15:42 | 25.15755 | 55.27795 | 12743 ft | 361 kts | 105° |
| 2026-04-20 15:43 | 25.15199 | 55.30560 | 13170 ft | 379 kts | 102° |
| 2026-04-20 15:43 | 25.14554 | 55.33443 | 13673 ft | 394 kts | 101° |
| 2026-04-20 15:43 | 25.14209 | 55.36475 | 14290 ft | 404 kts | 90° |
| 2026-04-20 15:43 | 25.14341 | 55.39604 | 15037 ft | 410 kts | 83° |
| 2026-04-20 15:44 | 25.14520 | 55.42768 | 15738 ft | 418 kts | 89° |
| 2026-04-20 15:44 | 25.14222 | 55.45980 | 16499 ft | 424 kts | 100° |
| 2026-04-20 15:44 | 25.13417 | 55.49127 | 17340 ft | 427 kts | 111° |
| 2026-04-20 15:44 | 25.12168 | 55.52105 | 18118 ft | 431 kts | 119° |
| 2026-04-20 15:45 | 25.10652 | 55.54983 | 18824 ft | 437 kts | 122° |
| 2026-04-20 15:45 | 25.09066 | 55.57855 | 19572 ft | 441 kts | 122° |
| 2026-04-20 15:45 | 25.07517 | 55.60797 | 20293 ft | 445 kts | 121° |
| 2026-04-20 15:45 | 25.05969 | 55.63757 | 20972 ft | 448 kts | 123° |
| 2026-04-20 15:46 | 25.04214 | 55.66623 | 21553 ft | 453 kts | 126° |
| 2026-04-20 15:46 | 25.02304 | 55.69399 | 22163 ft | 456 kts | 132° |
| 2026-04-20 15:46 | 25.00081 | 55.71894 | 22799 ft | 458 kts | 140° |
| 2026-04-20 15:46 | 24.97654 | 55.74190 | 23419 ft | 461 kts | 142° |
| 2026-04-20 15:47 | 24.95214 | 55.76509 | 24038 ft | 465 kts | 140° |
| 2026-04-20 15:47 | 24.92805 | 55.78918 | 24544 ft | 471 kts | 139° |
| 2026-04-20 15:47 | 24.90404 | 55.81411 | 25039 ft | 476 kts | 138° |
| 2026-04-20 15:47 | 24.87969 | 55.83896 | 25597 ft | 479 kts | 139° |
| 2026-04-20 15:48 | 24.85513 | 55.86381 | 26159 ft | 481 kts | 139° |
| 2026-04-20 15:48 | 24.83036 | 55.88884 | 26664 ft | 484 kts | 140° |
| 2026-04-20 15:48 | 24.80326 | 55.91081 | 27076 ft | 484 kts | 152° |
| 2026-04-20 15:48 | 24.77232 | 55.92538 | 27510 ft | 484 kts | 166° |
| 2026-04-20 15:49 | 24.73937 | 55.93274 | 27988 ft | 483 kts | 173° |
| 2026-04-20 15:49 | 24.70591 | 55.93702 | 28397 ft | 486 kts | 178° |
| 2026-04-20 15:49 | 24.67220 | 55.93702 | 28896 ft | 485 kts | 185° |
| 2026-04-20 15:49 | 24.63891 | 55.93175 | 29279 ft | 484 kts | 196° |
| 2026-04-20 15:50 | 24.60740 | 55.91902 | 29724 ft | 481 kts | 208° |
| 2026-04-20 15:50 | 24.57881 | 55.90091 | 30428 ft | 473 kts | 213° |
| 2026-04-20 15:50 | 24.55187 | 55.88229 | 30883 ft | 472 kts | 217° |
| 2026-04-20 15:50 | 24.54238 | 55.87501 | 31056 ft | 472 kts | 218° |
| 2026-04-20 15:51 | 24.51631 | 55.85318 | 31502 ft | 471 kts | 221° |
| 2026-04-20 15:51 | 24.49146 | 55.82983 | 31986 ft | 470 kts | 224° |
| 2026-04-20 15:51 | 24.46722 | 55.80575 | 32416 ft | 470 kts | 225° |
| 2026-04-20 15:51 | 24.44279 | 55.78188 | 32849 ft | 470 kts | 224° |
| 2026-04-20 15:52 | 24.41825 | 55.75834 | 33366 ft | 468 kts | 224° |
| 2026-04-20 15:52 | 24.39372 | 55.73486 | 33691 ft | 470 kts | 224° |
| 2026-04-20 15:52 | 24.36933 | 55.71150 | 33954 ft | 473 kts | 224° |
| 2026-04-20 15:53 | 24.29547 | 55.64019 | 33982 ft | 470 kts | 224° |
| 2026-04-20 15:53 | 24.24081 | 55.60049 | 33967 ft | 476 kts | 208° |
| 2026-04-20 15:54 | 24.17714 | 55.57894 | 33972 ft | 484 kts | 195° |
| 2026-04-20 15:54 | 24.12254 | 55.56539 | 33967 ft | 484 kts | 197° |
| 2026-04-20 15:55 | 24.04658 | 55.54284 | 33932 ft | 483 kts | 198° |
| 2026-04-20 15:55 | 23.99284 | 55.52691 | 33941 ft | 481 kts | 198° |
| 2026-04-20 15:56 | 23.92846 | 55.50773 | 33927 ft | 479 kts | 198° |
| 2026-04-20 15:56 | 23.86406 | 55.48859 | 33917 ft | 481 kts | 198° |
| 2026-04-20 15:57 | 23.79946 | 55.46930 | 33910 ft | 482 kts | 199° |
| 2026-04-20 15:57 | 23.73485 | 55.45003 | 33904 ft | 480 kts | 199° |
| 2026-04-20 15:58 | 23.67017 | 55.43079 | 33871 ft | 484 kts | 199° |
| 2026-04-20 15:58 | 23.60477 | 55.41136 | 33836 ft | 490 kts | 199° |
| 2026-04-20 15:59 | 23.53824 | 55.39323 | 33813 ft | 497 kts | 192° |
| 2026-04-20 15:59 | 23.46884 | 55.39419 | 33806 ft | 506 kts | 169° |
| 2026-04-20 16:00 | 23.40203 | 55.41892 | 33803 ft | 511 kts | 164° |
| 2026-04-20 16:00 | 23.33349 | 55.44079 | 33806 ft | 513 kts | 167° |
| 2026-04-20 16:01 | 23.26489 | 55.46150 | 33801 ft | 510 kts | 166° |
| 2026-04-20 16:01 | 23.19675 | 55.48292 | 33801 ft | 510 kts | 166° |
| 2026-04-20 16:02 | 23.12856 | 55.50445 | 33814 ft | 511 kts | 166° |
| 2026-04-20 16:02 | 23.06079 | 55.52580 | 33808 ft | 510 kts | 166° |
| 2026-04-20 16:03 | 22.99256 | 55.54711 | 33817 ft | 512 kts | 167° |
| 2026-04-20 16:03 | 22.92374 | 55.56792 | 33831 ft | 514 kts | 166° |
| 2026-04-20 16:04 | 22.85475 | 55.58905 | 33945 ft | 516 kts | 166° |
| 2026-04-20 16:04 | 22.82014 | 55.59958 | 34334 ft | 516 kts | 166° |
| 2026-04-20 16:04 | 22.78553 | 55.61007 | 34699 ft | 516 kts | 167° |
| 2026-04-20 16:05 | 22.75095 | 55.62070 | 35046 ft | 517 kts | 167° |
| 2026-04-20 16:05 | 22.71638 | 55.63122 | 35423 ft | 516 kts | 167° |
| 2026-04-20 16:05 | 22.68174 | 55.64170 | 35753 ft | 517 kts | 168° |
| 2026-04-20 16:05 | 22.64708 | 55.65224 | 36057 ft | 519 kts | 167° |
| 2026-04-20 16:06 | 22.61214 | 55.66292 | 36279 ft | 522 kts | 167° |
| 2026-04-20 16:06 | 22.57711 | 55.67364 | 36548 ft | 524 kts | 168° |
| 2026-04-20 16:06 | 22.54194 | 55.68449 | 36764 ft | 526 kts | 168° |
| 2026-04-20 16:06 | 22.50675 | 55.69527 | 37039 ft | 528 kts | 168° |
| 2026-04-20 16:07 | 22.47132 | 55.70613 | 37260 ft | 530 kts | 168° |
| 2026-04-20 16:07 | 22.43580 | 55.71702 | 37507 ft | 531 kts | 168° |
| 2026-04-20 16:07 | 22.40010 | 55.72782 | 37716 ft | 534 kts | 168° |
| 2026-04-20 16:07 | 22.36435 | 55.73882 | 37880 ft | 536 kts | 169° |
| 2026-04-20 16:08 | 22.29154 | 55.76101 | 37843 ft | 550 kts | 167° |
| 2026-04-20 16:08 | 22.21631 | 55.77718 | 37844 ft | 552 kts | 178° |
| 2026-04-20 16:09 | 22.14026 | 55.78382 | 37845 ft | 542 kts | 181° |
| 2026-04-20 16:09 | 22.06537 | 55.79053 | 37847 ft | 538 kts | 180° |
| 2026-04-20 16:10 | 21.99051 | 55.79806 | 37849 ft | 543 kts | 180° |
| 2026-04-20 16:10 | 21.91551 | 55.80560 | 37848 ft | 544 kts | 179° |
| 2026-04-20 16:11 | 21.83983 | 55.81321 | 37844 ft | 541 kts | 180° |
| 2026-04-20 16:11 | 21.76483 | 55.82073 | 37852 ft | 541 kts | 179° |
| 2026-04-20 16:12 | 21.68991 | 55.82819 | 37848 ft | 540 kts | 180° |
| 2026-04-20 16:12 | 21.61567 | 55.83550 | 37837 ft | 539 kts | 180° |
| 2026-04-20 16:13 | 21.54093 | 55.84278 | 37844 ft | 541 kts | 180° |
| 2026-04-20 16:13 | 21.46586 | 55.85010 | 37848 ft | 542 kts | 180° |
| 2026-04-20 16:14 | 21.39083 | 55.85742 | 37846 ft | 541 kts | 179° |
| 2026-04-20 16:14 | 21.31589 | 55.86473 | 37848 ft | 539 kts | 180° |
| 2026-04-20 16:15 | 21.24117 | 55.87194 | 37844 ft | 539 kts | 180° |
| 2026-04-20 16:15 | 21.16650 | 55.87913 | 37851 ft | 539 kts | 180° |
| 2026-04-20 16:16 | 21.09177 | 55.88634 | 37844 ft | 538 kts | 180° |
| 2026-04-20 16:16 | 21.01715 | 55.89351 | 37847 ft | 539 kts | 179° |
| 2026-04-20 16:17 | 20.94242 | 55.90067 | 37845 ft | 539 kts | 180° |
| 2026-04-20 16:17 | 20.86767 | 55.90783 | 37844 ft | 539 kts | 179° |
| 2026-04-20 16:18 | 20.79331 | 55.91514 | 37846 ft | 541 kts | 179° |
| 2026-04-20 16:18 | 20.71840 | 55.92247 | 37843 ft | 540 kts | 179° |
| 2026-04-20 16:19 | 20.64342 | 55.92984 | 37841 ft | 541 kts | 179° |
| 2026-04-20 16:19 | 20.56837 | 55.93722 | 37841 ft | 541 kts | 179° |
| 2026-04-20 16:20 | 20.49343 | 55.94457 | 37832 ft | 541 kts | 179° |
| 2026-04-20 16:20 | 20.41842 | 55.95189 | 37835 ft | 540 kts | 179° |
| 2026-04-20 16:21 | 20.34358 | 55.95921 | 37824 ft | 540 kts | 179° |
| 2026-04-20 16:21 | 20.26867 | 55.96643 | 37827 ft | 541 kts | 179° |
| 2026-04-20 16:22 | 20.19371 | 55.97356 | 37822 ft | 541 kts | 179° |
| 2026-04-20 16:22 | 20.11880 | 55.98069 | 37820 ft | 541 kts | 179° |
| 2026-04-20 16:23 | 20.04380 | 55.98663 | 37821 ft | 539 kts | 183° |
| 2026-04-20 16:23 | 19.96947 | 55.98763 | 37817 ft | 538 kts | 185° |
| 2026-04-20 16:24 | 19.89449 | 55.98869 | 37818 ft | 538 kts | 184° |
| 2026-04-20 16:24 | 19.81973 | 55.99042 | 37818 ft | 537 kts | 184° |
| 2026-04-20 16:25 | 19.74499 | 55.99223 | 37818 ft | 538 kts | 184° |
| 2026-04-20 16:25 | 19.67012 | 55.99404 | 37819 ft | 538 kts | 183° |
| 2026-04-20 16:26 | 19.59535 | 55.99584 | 37819 ft | 538 kts | 184° |
| 2026-04-20 16:26 | 19.52082 | 55.99508 | 37822 ft | 530 kts | 192° |
| 2026-04-20 16:27 | 19.45139 | 55.97335 | 37824 ft | 513 kts | 216° |
| 2026-04-20 16:27 | 19.39060 | 55.93384 | 37816 ft | 513 kts | 221° |
| 2026-04-20 16:28 | 19.33125 | 55.89243 | 37821 ft | 509 kts | 219° |
| 2026-04-20 16:28 | 19.27035 | 55.85470 | 37818 ft | 507 kts | 217° |
| 2026-04-20 16:29 | 19.20947 | 55.81798 | 37820 ft | 508 kts | 217° |
| 2026-04-20 16:29 | 19.14800 | 55.78082 | 37818 ft | 510 kts | 217° |
| 2026-04-20 16:30 | 19.08639 | 55.74359 | 37821 ft | 510 kts | 217° |
| 2026-04-20 16:30 | 19.02487 | 55.70645 | 37824 ft | 509 kts | 217° |
| 2026-04-20 16:31 | 18.96339 | 55.66953 | 37822 ft | 508 kts | 217° |
| 2026-04-20 16:31 | 18.90175 | 55.63252 | 37822 ft | 511 kts | 217° |
| 2026-04-20 16:32 | 18.83982 | 55.59536 | 37825 ft | 512 kts | 217° |
| 2026-04-20 16:32 | 18.77796 | 55.55826 | 37823 ft | 512 kts | 217° |
| 2026-04-20 16:33 | 18.71609 | 55.52107 | 37829 ft | 511 kts | 217° |
| 2026-04-20 16:33 | 18.65434 | 55.48401 | 37833 ft | 511 kts | 217° |
| 2026-04-20 16:34 | 18.59262 | 55.44695 | 37829 ft | 511 kts | 217° |
| 2026-04-20 16:34 | 18.53078 | 55.40996 | 37829 ft | 511 kts | 217° |
| 2026-04-20 16:35 | 18.46894 | 55.37302 | 37829 ft | 510 kts | 217° |
| 2026-04-20 16:35 | 18.40723 | 55.33619 | 37825 ft | 510 kts | 217° |
| 2026-04-20 16:36 | 18.34585 | 55.29954 | 37831 ft | 510 kts | 217° |
| 2026-04-20 16:36 | 18.28413 | 55.26269 | 37833 ft | 510 kts | 217° |
| 2026-04-20 16:37 | 18.22237 | 55.22588 | 37828 ft | 510 kts | 217° |
| 2026-04-20 16:37 | 18.16080 | 55.18921 | 37844 ft | 502 kts | 217° |
| 2026-04-20 16:38 | 18.09928 | 55.15644 | 37848 ft | 492 kts | 211° |
| 2026-04-20 16:38 | 18.03563 | 55.12879 | 37859 ft | 499 kts | 208° |
| 2026-04-20 16:39 | 17.97132 | 55.10110 | 37870 ft | 498 kts | 209° |
| 2026-04-20 16:39 | 17.90783 | 55.07292 | 37868 ft | 495 kts | 209° |
| 2026-04-20 16:40 | 17.84458 | 55.04466 | 37884 ft | 493 kts | 209° |
| 2026-04-20 16:40 | 17.78193 | 55.01655 | 37904 ft | 488 kts | 209° |
| 2026-04-20 16:41 | 17.71987 | 54.98874 | 37911 ft | 491 kts | 208° |
| 2026-04-20 16:41 | 17.65661 | 54.96044 | 37929 ft | 496 kts | 207° |
| 2026-04-20 16:42 | 17.59354 | 54.93226 | 37948 ft | 490 kts | 207° |
| 2026-04-20 16:42 | 17.54148 | 54.90896 | 37939 ft | 489 kts | 207° |
| 2026-04-20 16:43 | 17.47876 | 54.88095 | 37947 ft | 490 kts | 207° |
| 2026-04-20 16:43 | 17.41628 | 54.85312 | 37956 ft | 487 kts | 207° |
| 2026-04-20 16:44 | 17.35409 | 54.82543 | 37962 ft | 486 kts | 207° |
| 2026-04-20 16:44 | 17.29166 | 54.79765 | 37971 ft | 490 kts | 206° |
| 2026-04-20 16:45 | 17.23155 | 54.76398 | 37975 ft | 490 kts | 216° |
| 2026-04-20 16:45 | 17.17515 | 54.72518 | 37979 ft | 483 kts | 217° |
| 2026-04-20 16:46 | 17.11898 | 54.68693 | 37990 ft | 483 kts | 216° |
| 2026-04-20 16:46 | 17.06213 | 54.64885 | 37992 ft | 486 kts | 216° |
| 2026-04-20 16:47 | 17.00488 | 54.61064 | 37975 ft | 490 kts | 217° |
| 2026-04-20 16:47 | 16.94746 | 54.57233 | 37993 ft | 488 kts | 216° |
| 2026-04-20 16:48 | 16.89031 | 54.53422 | 37994 ft | 486 kts | 216° |
| 2026-04-20 16:48 | 16.83299 | 54.49600 | 37972 ft | 494 kts | 218° |
| 2026-04-20 16:49 | 16.77447 | 54.45701 | 37964 ft | 504 kts | 218° |
| 2026-04-20 16:49 | 16.71486 | 54.41732 | 37964 ft | 511 kts | 218° |
| 2026-04-20 16:50 | 16.65531 | 54.37770 | 37963 ft | 510 kts | 218° |
| 2026-04-20 16:50 | 16.59555 | 54.33795 | 37964 ft | 509 kts | 218° |
| 2026-04-20 16:51 | 16.53562 | 54.29796 | 37964 ft | 509 kts | 218° |
| 2026-04-20 16:51 | 16.47627 | 54.25847 | 37964 ft | 509 kts | 218° |
| 2026-04-20 16:52 | 16.41659 | 54.21882 | 37964 ft | 509 kts | 218° |
| 2026-04-20 16:52 | 16.35645 | 54.17890 | 37965 ft | 509 kts | 218° |
| 2026-04-20 16:53 | 16.29709 | 54.13953 | 37964 ft | 509 kts | 218° |
| 2026-04-20 16:53 | 16.23734 | 54.09993 | 37964 ft | 509 kts | 218° |
| 2026-04-20 16:54 | 16.17757 | 54.06034 | 37964 ft | 509 kts | 218° |
| 2026-04-20 16:54 | 16.11781 | 54.02072 | 37964 ft | 509 kts | 218° |
| 2026-04-20 16:55 | 16.05809 | 53.98121 | 37964 ft | 509 kts | 218° |
| 2026-04-20 16:55 | 15.99826 | 53.94170 | 37964 ft | 509 kts | 218° |
| 2026-04-20 16:56 | 15.93850 | 53.90226 | 37963 ft | 509 kts | 218° |
| 2026-04-20 16:56 | 15.87873 | 53.86283 | 37963 ft | 509 kts | 218° |
| 2026-04-20 16:57 | 15.81921 | 53.82309 | 37963 ft | 508 kts | 218° |
| 2026-04-20 16:57 | 15.75982 | 53.78340 | 37961 ft | 508 kts | 218° |
| 2026-04-20 16:58 | 15.70025 | 53.74361 | 37959 ft | 508 kts | 218° |
| 2026-04-20 16:58 | 15.64093 | 53.70387 | 37958 ft | 508 kts | 218° |
| 2026-04-20 16:59 | 15.58181 | 53.66445 | 37953 ft | 508 kts | 218° |
| 2026-04-20 16:59 | 15.52235 | 53.62484 | 37956 ft | 508 kts | 218° |
| 2026-04-20 17:00 | 15.43315 | 53.56545 | 37948 ft | 508 kts | 218° |
| 2026-04-20 17:01 | 15.37324 | 53.52674 | 37942 ft | 508 kts | 217° |
| 2026-04-20 17:01 | 15.31304 | 53.48846 | 37941 ft | 507 kts | 217° |
| 2026-04-20 17:02 | 15.25300 | 53.45012 | 37938 ft | 508 kts | 217° |
| 2026-04-20 17:02 | 15.19281 | 53.41166 | 37940 ft | 507 kts | 217° |
| 2026-04-20 17:03 | 15.13283 | 53.37331 | 37939 ft | 506 kts | 217° |
| 2026-04-20 17:03 | 15.07302 | 53.33499 | 37938 ft | 506 kts | 217° |
| 2026-04-20 17:04 | 15.01301 | 53.29663 | 37936 ft | 507 kts | 217° |
| 2026-04-20 17:04 | 14.95312 | 53.25840 | 37936 ft | 506 kts | 217° |
| 2026-04-20 17:05 | 14.89322 | 53.22012 | 37935 ft | 506 kts | 217° |
| 2026-04-20 17:05 | 14.83337 | 53.18197 | 37935 ft | 506 kts | 217° |
| 2026-04-20 17:06 | 14.77342 | 53.14380 | 37935 ft | 505 kts | 217° |
| 2026-04-20 17:06 | 14.71359 | 53.10573 | 37935 ft | 505 kts | 217° |
| 2026-04-20 17:07 | 14.65521 | 53.06571 | 37935 ft | 500 kts | 224° |
| 2026-04-20 17:07 | 14.60412 | 53.01737 | 37936 ft | 497 kts | 231° |
| 2026-04-20 17:08 | 14.55668 | 52.96571 | 37935 ft | 494 kts | 232° |
| 2026-04-20 17:08 | 14.50930 | 52.91440 | 37935 ft | 493 kts | 232° |
| 2026-04-20 17:09 | 14.46172 | 52.86406 | 37935 ft | 493 kts | 231° |
| 2026-04-20 17:09 | 14.41358 | 52.81346 | 37935 ft | 494 kts | 231° |
| 2026-04-20 17:10 | 14.36545 | 52.76277 | 37935 ft | 495 kts | 231° |
| 2026-04-20 17:10 | 14.31715 | 52.71207 | 37935 ft | 495 kts | 231° |
| 2026-04-20 17:11 | 14.26892 | 52.66152 | 37935 ft | 494 kts | 231° |
| 2026-04-20 17:11 | 14.22065 | 52.61098 | 37935 ft | 494 kts | 231° |
| 2026-04-20 17:12 | 14.17247 | 52.56057 | 37935 ft | 494 kts | 231° |
| 2026-04-20 17:12 | 14.12423 | 52.51013 | 37935 ft | 494 kts | 231° |
| 2026-04-20 17:13 | 14.07599 | 52.45973 | 37935 ft | 494 kts | 231° |
| 2026-04-20 17:13 | 14.02773 | 52.40933 | 37935 ft | 494 kts | 231° |
| 2026-04-20 17:14 | 13.97949 | 52.35899 | 37935 ft | 493 kts | 231° |
| 2026-04-20 17:14 | 13.93124 | 52.30867 | 37935 ft | 494 kts | 231° |
| 2026-04-20 17:15 | 13.88297 | 52.25835 | 37935 ft | 494 kts | 230° |
| 2026-04-20 17:15 | 13.83464 | 52.20802 | 37935 ft | 494 kts | 230° |
| 2026-04-20 17:16 | 13.78628 | 52.15767 | 37935 ft | 494 kts | 230° |
| 2026-04-20 17:16 | 13.73826 | 52.10760 | 37935 ft | 495 kts | 230° |
| 2026-04-20 17:17 | 13.68982 | 52.05724 | 37934 ft | 495 kts | 230° |
| 2026-04-20 17:17 | 13.64136 | 52.00693 | 37934 ft | 495 kts | 230° |
| 2026-04-20 17:18 | 13.59287 | 51.95661 | 37935 ft | 495 kts | 230° |
| 2026-04-20 17:18 | 13.54440 | 51.90631 | 37934 ft | 495 kts | 230° |
| 2026-04-20 17:19 | 13.49634 | 51.85573 | 37923 ft | 494 kts | 230° |
| 2026-04-20 17:19 | 13.44848 | 51.80530 | 37923 ft | 493 kts | 230° |
| 2026-04-20 17:20 | 13.40055 | 51.75485 | 37913 ft | 493 kts | 230° |
| 2026-04-20 17:20 | 13.35255 | 51.70437 | 37912 ft | 494 kts | 230° |
| 2026-04-20 17:21 | 13.30460 | 51.65396 | 37912 ft | 493 kts | 230° |
| 2026-04-20 17:21 | 13.25668 | 51.60341 | 37907 ft | 493 kts | 230° |
| 2026-04-20 17:22 | 13.20874 | 51.55297 | 37893 ft | 494 kts | 230° |
| 2026-04-20 17:22 | 13.16108 | 51.50291 | 37882 ft | 494 kts | 230° |
| 2026-04-20 17:23 | 13.11311 | 51.45255 | 37879 ft | 494 kts | 230° |
| 2026-04-20 17:23 | 13.06512 | 51.40219 | 37864 ft | 494 kts | 230° |
| 2026-04-20 17:24 | 13.01710 | 51.35184 | 37858 ft | 493 kts | 230° |
| 2026-04-20 17:24 | 12.96910 | 51.30155 | 37841 ft | 493 kts | 230° |
| 2026-04-20 17:25 | 12.92110 | 51.25128 | 37833 ft | 493 kts | 230° |
| 2026-04-20 17:25 | 12.87310 | 51.20104 | 37826 ft | 493 kts | 230° |
| 2026-04-20 17:26 | 12.82512 | 51.15075 | 37828 ft | 493 kts | 230° |
| 2026-04-20 17:26 | 12.77717 | 51.10061 | 37835 ft | 493 kts | 230° |
| 2026-04-20 17:27 | 12.72912 | 51.05045 | 37819 ft | 493 kts | 230° |
| 2026-04-20 17:27 | 12.68102 | 51.00025 | 37817 ft | 494 kts | 230° |
| 2026-04-20 17:28 | 12.63295 | 50.95011 | 37819 ft | 494 kts | 229° |
| 2026-04-20 17:28 | 12.58472 | 50.89989 | 37819 ft | 494 kts | 229° |
| 2026-04-20 17:29 | 12.54466 | 50.85825 | 37817 ft | 494 kts | 229° |
| 2026-04-20 17:29 | 12.49640 | 50.80809 | 37817 ft | 494 kts | 229° |
| 2026-04-20 17:30 | 12.44819 | 50.75800 | 37817 ft | 494 kts | 229° |
| 2026-04-20 17:30 | 12.39990 | 50.70784 | 37817 ft | 496 kts | 229° |
| 2026-04-20 17:31 | 12.35165 | 50.65750 | 37816 ft | 495 kts | 229° |
| 2026-04-20 17:31 | 12.30330 | 50.60729 | 37816 ft | 494 kts | 229° |
| 2026-04-20 17:32 | 12.25509 | 50.55730 | 37817 ft | 494 kts | 229° |
| 2026-04-20 17:32 | 12.20686 | 50.50732 | 37817 ft | 494 kts | 229° |
| 2026-04-20 17:33 | 12.15865 | 50.45729 | 37817 ft | 493 kts | 229° |
| 2026-04-20 17:33 | 12.11246 | 50.40558 | 37817 ft | 492 kts | 232° |
| 2026-04-20 17:34 | 12.06744 | 50.35351 | 37816 ft | 492 kts | 231° |
| 2026-04-20 17:34 | 12.02178 | 50.30140 | 37817 ft | 492 kts | 231° |
| 2026-04-20 17:35 | 11.97600 | 50.24941 | 37817 ft | 492 kts | 231° |
| 2026-04-20 17:35 | 11.93018 | 50.19745 | 37817 ft | 492 kts | 231° |
| 2026-04-20 17:36 | 11.88446 | 50.14549 | 37817 ft | 492 kts | 231° |
| 2026-04-20 17:36 | 11.83892 | 50.09386 | 37821 ft | 485 kts | 231° |
| 2026-04-20 17:37 | 11.79382 | 50.04279 | 37818 ft | 483 kts | 231° |
| 2026-04-20 17:37 | 11.74899 | 49.99206 | 37830 ft | 480 kts | 231° |
| 2026-04-20 17:38 | 11.70416 | 49.94136 | 37833 ft | 482 kts | 231° |
| 2026-04-20 17:38 | 11.65917 | 49.89051 | 37845 ft | 482 kts | 231° |
| 2026-04-20 17:39 | 11.61436 | 49.83988 | 37849 ft | 480 kts | 231° |
| 2026-04-20 17:39 | 11.56994 | 49.78960 | 37857 ft | 474 kts | 231° |
| 2026-04-20 17:40 | 11.52570 | 49.73968 | 37861 ft | 475 kts | 231° |
| 2026-04-20 17:40 | 11.48126 | 49.68958 | 37878 ft | 479 kts | 231° |
| 2026-04-20 17:41 | 11.43649 | 49.63914 | 37909 ft | 486 kts | 231° |
| 2026-04-20 17:41 | 11.39110 | 49.58801 | 37908 ft | 485 kts | 231° |
| 2026-04-20 17:42 | 11.34460 | 49.53857 | 37898 ft | 483 kts | 228° |
| 2026-04-20 17:42 | 11.29653 | 49.49039 | 37911 ft | 487 kts | 227° |
| 2026-04-20 17:43 | 11.24829 | 49.44156 | 37927 ft | 489 kts | 227° |
| 2026-04-20 17:43 | 11.20002 | 49.39237 | 37876 ft | 492 kts | 228° |
| 2026-04-20 17:44 | 11.15172 | 49.34306 | 37858 ft | 492 kts | 228° |
| 2026-04-20 17:44 | 11.10339 | 49.29351 | 37830 ft | 493 kts | 228° |
| 2026-04-20 17:45 | 11.05496 | 49.24393 | 37833 ft | 494 kts | 228° |
| 2026-04-20 17:45 | 11.00651 | 49.19438 | 37825 ft | 494 kts | 227° |
| 2026-04-20 17:46 | 10.95797 | 49.14478 | 37819 ft | 494 kts | 227° |
| 2026-04-20 17:46 | 10.90945 | 49.09523 | 37819 ft | 494 kts | 227° |
| 2026-04-20 17:47 | 10.86095 | 49.04573 | 37836 ft | 494 kts | 227° |
| 2026-04-20 17:47 | 10.81238 | 48.99617 | 37839 ft | 495 kts | 227° |
| 2026-04-20 17:48 | 10.76370 | 48.94654 | 37831 ft | 495 kts | 227° |
| 2026-04-20 17:48 | 10.71514 | 48.89704 | 37834 ft | 494 kts | 227° |
| 2026-04-20 17:49 | 10.66689 | 48.84789 | 37872 ft | 493 kts | 227° |
| 2026-04-20 17:49 | 10.61838 | 48.79850 | 37881 ft | 494 kts | 227° |
| 2026-04-20 17:50 | 10.56986 | 48.74911 | 37887 ft | 494 kts | 227° |
| 2026-04-20 17:50 | 10.52129 | 48.69971 | 37907 ft | 493 kts | 227° |
| 2026-04-20 17:51 | 10.47285 | 48.65045 | 37932 ft | 493 kts | 227° |
| 2026-04-20 17:51 | 10.42432 | 48.60113 | 37958 ft | 493 kts | 227° |
| 2026-04-20 17:52 | 10.37584 | 48.55188 | 37964 ft | 493 kts | 227° |
| 2026-04-20 17:52 | 10.32731 | 48.50261 | 37983 ft | 492 kts | 227° |
| 2026-04-20 17:53 | 10.27889 | 48.45346 | 37979 ft | 492 kts | 227° |
| 2026-04-20 17:53 | 10.23050 | 48.40438 | 37981 ft | 491 kts | 227° |
| 2026-04-20 17:54 | 10.18214 | 48.35535 | 37998 ft | 491 kts | 227° |
| 2026-04-20 17:54 | 10.13377 | 48.30632 | 38002 ft | 492 kts | 227° |
| 2026-04-20 17:55 | 10.08537 | 48.25728 | 38008 ft | 491 kts | 227° |
| 2026-04-20 17:55 | 10.03711 | 48.20841 | 38011 ft | 490 kts | 227° |
| 2026-04-20 17:56 | 9.98883 | 48.15955 | 38014 ft | 490 kts | 226° |
| 2026-04-20 17:56 | 9.94047 | 48.11062 | 38012 ft | 492 kts | 226° |
| 2026-04-20 17:57 | 9.89196 | 48.06157 | 38013 ft | 492 kts | 226° |
| 2026-04-20 17:57 | 9.84351 | 48.01260 | 38013 ft | 491 kts | 226° |
| 2026-04-20 17:58 | 9.79511 | 47.96369 | 38002 ft | 491 kts | 226° |
| 2026-04-20 17:58 | 9.74667 | 47.91477 | 37988 ft | 491 kts | 226° |
| 2026-04-20 17:59 | 9.69822 | 47.86586 | 37973 ft | 491 kts | 226° |
| 2026-04-20 17:59 | 9.64980 | 47.81700 | 37940 ft | 491 kts | 226° |
| 2026-04-20 18:00 | 9.60138 | 47.76816 | 37937 ft | 491 kts | 226° |
| 2026-04-20 18:00 | 9.55294 | 47.71933 | 37929 ft | 491 kts | 226° |
| 2026-04-20 18:01 | 9.50485 | 47.67086 | 37908 ft | 491 kts | 226° |
| 2026-04-20 18:01 | 9.45635 | 47.62200 | 37873 ft | 492 kts | 226° |
| 2026-04-20 18:02 | 9.40786 | 47.57314 | 37869 ft | 492 kts | 226° |
| 2026-04-20 18:02 | 9.35939 | 47.52430 | 37840 ft | 492 kts | 226° |
| 2026-04-20 18:03 | 9.31089 | 47.47553 | 37836 ft | 491 kts | 226° |
| 2026-04-20 18:03 | 9.26238 | 47.42676 | 37824 ft | 491 kts | 226° |
| 2026-04-20 18:04 | 9.21396 | 47.37810 | 37821 ft | 491 kts | 226° |
| 2026-04-20 18:04 | 9.16564 | 47.32907 | 37822 ft | 491 kts | 227° |
| 2026-04-20 18:05 | 9.09483 | 47.25412 | 37819 ft | 491 kts | 227° |
| 2026-04-20 18:05 | 9.04783 | 47.20457 | 37818 ft | 491 kts | 227° |
| 2026-04-20 18:06 | 9.00043 | 47.15471 | 37818 ft | 491 kts | 227° |
| 2026-04-20 18:06 | 8.95303 | 47.10487 | 37817 ft | 492 kts | 227° |
| 2026-04-20 18:07 | 8.90564 | 47.05494 | 37818 ft | 492 kts | 227° |
| 2026-04-20 18:07 | 8.85820 | 47.00505 | 37820 ft | 492 kts | 227° |
| 2026-04-20 18:08 | 8.81074 | 46.95517 | 37824 ft | 492 kts | 227° |
| 2026-04-20 18:08 | 8.76325 | 46.90531 | 37828 ft | 492 kts | 227° |
| 2026-04-20 18:09 | 8.71578 | 46.85548 | 37834 ft | 492 kts | 227° |
| 2026-04-20 18:09 | 8.66827 | 46.80562 | 37846 ft | 492 kts | 227° |
| 2026-04-20 18:10 | 8.62081 | 46.75584 | 37848 ft | 492 kts | 227° |
| 2026-04-20 18:10 | 8.57328 | 46.70601 | 37844 ft | 492 kts | 227° |
| 2026-04-20 18:11 | 8.52589 | 46.65633 | 37844 ft | 492 kts | 227° |
| 2026-04-20 18:11 | 8.47836 | 46.60654 | 37883 ft | 491 kts | 227° |
| 2026-04-20 18:12 | 8.43125 | 46.55717 | 37886 ft | 492 kts | 227° |
| 2026-04-20 18:12 | 8.38379 | 46.50743 | 37877 ft | 491 kts | 227° |
| 2026-04-20 18:13 | 8.33641 | 46.45786 | 37891 ft | 490 kts | 227° |
| 2026-04-20 18:13 | 8.28902 | 46.40831 | 37907 ft | 490 kts | 227° |
| 2026-04-20 18:14 | 8.24170 | 46.35884 | 37946 ft | 490 kts | 227° |
| 2026-04-20 18:14 | 8.19453 | 46.30926 | 37952 ft | 489 kts | 227° |
| 2026-04-20 18:15 | 8.14772 | 46.25937 | 37967 ft | 489 kts | 227° |
| 2026-04-20 18:15 | 8.10096 | 46.20960 | 37972 ft | 489 kts | 227° |
| 2026-04-20 18:16 | 8.06205 | 46.16822 | 37964 ft | 489 kts | 227° |
| 2026-04-20 18:16 | 8.01526 | 46.11848 | 37986 ft | 488 kts | 227° |
| 2026-04-20 18:17 | 7.96856 | 46.06880 | 37992 ft | 488 kts | 227° |
| 2026-04-20 18:17 | 7.92180 | 46.01903 | 37991 ft | 488 kts | 227° |
| 2026-04-20 18:18 | 7.87510 | 45.96934 | 37983 ft | 488 kts | 227° |
| 2026-04-20 18:18 | 7.82834 | 45.91966 | 37990 ft | 488 kts | 227° |
| 2026-04-20 18:19 | 7.78159 | 45.87004 | 37994 ft | 488 kts | 227° |
| 2026-04-20 18:19 | 7.73471 | 45.82030 | 37994 ft | 489 kts | 227° |
| 2026-04-20 18:20 | 7.68792 | 45.77067 | 37992 ft | 489 kts | 227° |
| 2026-04-20 18:20 | 7.64103 | 45.72101 | 37992 ft | 489 kts | 227° |
| 2026-04-20 18:21 | 7.59409 | 45.67141 | 37994 ft | 489 kts | 227° |
| 2026-04-20 18:21 | 7.54740 | 45.62207 | 37994 ft | 489 kts | 227° |
| 2026-04-20 18:22 | 7.50045 | 45.57245 | 37994 ft | 489 kts | 227° |
| 2026-04-20 18:22 | 7.45357 | 45.52292 | 37994 ft | 489 kts | 227° |
| 2026-04-20 18:23 | 7.40668 | 45.47332 | 37994 ft | 489 kts | 227° |
| 2026-04-20 18:23 | 7.35979 | 45.42373 | 37994 ft | 489 kts | 227° |
| 2026-04-20 18:24 | 7.31280 | 45.37409 | 37994 ft | 489 kts | 227° |
| 2026-04-20 18:24 | 7.26587 | 45.32454 | 37994 ft | 489 kts | 227° |
| 2026-04-20 18:25 | 7.21894 | 45.27501 | 37994 ft | 489 kts | 227° |
| 2026-04-20 18:25 | 7.17202 | 45.22550 | 37994 ft | 489 kts | 227° |
| 2026-04-20 18:26 | 7.12756 | 45.17861 | 37994 ft | 489 kts | 227° |
| 2026-04-20 18:26 | 7.09759 | 45.14700 | 37994 ft | 489 kts | 227° |
| 2026-04-20 18:27 | 7.05058 | 45.09744 | 37994 ft | 490 kts | 226° |
| 2026-04-20 18:27 | 7.00348 | 45.04780 | 37994 ft | 490 kts | 226° |
| 2026-04-20 18:28 | 6.95645 | 44.99824 | 37994 ft | 490 kts | 226° |
| 2026-04-20 18:28 | 6.90936 | 44.94859 | 37994 ft | 490 kts | 226° |
| 2026-04-20 18:29 | 6.86223 | 44.89896 | 37994 ft | 490 kts | 226° |
| 2026-04-20 18:29 | 6.81542 | 44.84970 | 37994 ft | 490 kts | 227° |
| 2026-04-20 18:30 | 6.76834 | 44.80017 | 37994 ft | 490 kts | 227° |
| 2026-04-20 18:30 | 6.72119 | 44.75059 | 37994 ft | 490 kts | 226° |
| 2026-04-20 18:31 | 6.67400 | 44.70109 | 37994 ft | 490 kts | 226° |
| 2026-04-20 18:31 | 6.62674 | 44.65163 | 37994 ft | 490 kts | 226° |
| 2026-04-20 18:32 | 6.57942 | 44.60210 | 37994 ft | 491 kts | 226° |
| 2026-04-20 18:32 | 6.53211 | 44.55258 | 37995 ft | 491 kts | 226° |
| 2026-04-20 18:33 | 6.48478 | 44.50305 | 37994 ft | 491 kts | 226° |
| 2026-04-20 18:33 | 6.43742 | 44.45340 | 37993 ft | 492 kts | 226° |
| 2026-04-20 18:34 | 6.39007 | 44.40382 | 37992 ft | 492 kts | 226° |
| 2026-04-20 18:34 | 6.34257 | 44.35411 | 37993 ft | 493 kts | 226° |
| 2026-04-20 18:35 | 6.29508 | 44.30444 | 37997 ft | 493 kts | 226° |
| 2026-04-20 18:35 | 6.24754 | 44.25473 | 37994 ft | 493 kts | 226° |
| 2026-04-20 18:36 | 6.19998 | 44.20501 | 37992 ft | 493 kts | 226° |
| 2026-04-20 18:36 | 6.15279 | 44.15568 | 37993 ft | 493 kts | 226° |
| 2026-04-20 18:37 | 6.10496 | 44.10572 | 37995 ft | 494 kts | 226° |
| 2026-04-20 18:37 | 6.05759 | 44.05623 | 37995 ft | 494 kts | 226° |
| 2026-04-20 18:38 | 6.01019 | 44.00674 | 37993 ft | 494 kts | 226° |
| 2026-04-20 18:38 | 5.96232 | 43.95676 | 37994 ft | 493 kts | 226° |
| 2026-04-20 18:39 | 5.91468 | 43.90704 | 37994 ft | 494 kts | 226° |
| 2026-04-20 18:39 | 5.86704 | 43.85728 | 37994 ft | 494 kts | 226° |
| 2026-04-20 18:40 | 5.81932 | 43.80750 | 37991 ft | 494 kts | 226° |
| 2026-04-20 18:40 | 5.77162 | 43.75777 | 37993 ft | 495 kts | 226° |
| 2026-04-20 18:41 | 5.72386 | 43.70798 | 37993 ft | 495 kts | 226° |
| 2026-04-20 18:41 | 5.67608 | 43.65819 | 37994 ft | 496 kts | 226° |
| 2026-04-20 18:42 | 5.62810 | 43.60839 | 37994 ft | 496 kts | 226° |
| 2026-04-20 18:42 | 5.58007 | 43.55865 | 37992 ft | 497 kts | 226° |
| 2026-04-20 18:43 | 5.53228 | 43.50913 | 37990 ft | 496 kts | 226° |
| 2026-04-20 18:43 | 5.48395 | 43.45905 | 37988 ft | 496 kts | 226° |
| 2026-04-20 18:44 | 5.43592 | 43.40929 | 37991 ft | 496 kts | 226° |
| 2026-04-20 18:44 | 5.38792 | 43.35949 | 37992 ft | 497 kts | 226° |
| 2026-04-20 18:45 | 5.34018 | 43.31000 | 37978 ft | 496 kts | 226° |
| 2026-04-20 18:45 | 5.29221 | 43.26030 | 37976 ft | 495 kts | 226° |
| 2026-04-20 18:46 | 5.24429 | 43.21067 | 37974 ft | 495 kts | 226° |
| 2026-04-20 18:46 | 5.19634 | 43.16102 | 37973 ft | 495 kts | 226° |
| 2026-04-20 18:47 | 5.14836 | 43.11136 | 37968 ft | 495 kts | 226° |
| 2026-04-20 18:47 | 5.10042 | 43.06175 | 37966 ft | 495 kts | 226° |
| 2026-04-20 18:48 | 5.05249 | 43.01216 | 37965 ft | 495 kts | 226° |
| 2026-04-20 18:48 | 5.00451 | 42.96253 | 37965 ft | 495 kts | 226° |
| 2026-04-20 18:49 | 4.95661 | 42.91299 | 37965 ft | 495 kts | 226° |
| 2026-04-20 18:49 | 4.90868 | 42.86344 | 37965 ft | 495 kts | 226° |
| 2026-04-20 18:50 | 4.86072 | 42.81386 | 37965 ft | 495 kts | 226° |
| 2026-04-20 18:50 | 4.81273 | 42.76427 | 37964 ft | 495 kts | 226° |
| 2026-04-20 18:51 | 4.76475 | 42.71469 | 37964 ft | 495 kts | 226° |
| 2026-04-20 18:51 | 4.71677 | 42.66512 | 37965 ft | 495 kts | 226° |
| 2026-04-20 18:52 | 4.66877 | 42.61555 | 37964 ft | 496 kts | 226° |
| 2026-04-20 18:52 | 4.62071 | 42.56592 | 37965 ft | 496 kts | 226° |
| 2026-04-20 18:53 | 4.57269 | 42.51634 | 37965 ft | 496 kts | 226° |
| 2026-04-20 18:53 | 4.52463 | 42.46674 | 37964 ft | 496 kts | 226° |
| 2026-04-20 18:54 | 4.47657 | 42.41713 | 37964 ft | 496 kts | 226° |
| 2026-04-20 18:54 | 4.42848 | 42.36752 | 37964 ft | 496 kts | 226° |
| 2026-04-20 18:55 | 4.38042 | 42.31795 | 37964 ft | 496 kts | 226° |
| 2026-04-20 18:55 | 4.33233 | 42.26834 | 37964 ft | 496 kts | 226° |
| 2026-04-20 18:56 | 4.28457 | 42.21910 | 37965 ft | 496 kts | 226° |
| 2026-04-20 18:56 | 4.23620 | 42.16922 | 37965 ft | 496 kts | 226° |
| 2026-04-20 18:57 | 4.18835 | 42.11990 | 37965 ft | 496 kts | 226° |
| 2026-04-20 18:57 | 4.14029 | 42.07033 | 37964 ft | 496 kts | 226° |
| 2026-04-20 18:58 | 4.09218 | 42.02075 | 37965 ft | 496 kts | 226° |
| 2026-04-20 18:58 | 4.04409 | 41.97121 | 37965 ft | 496 kts | 226° |
| 2026-04-20 18:59 | 3.99597 | 41.92165 | 37966 ft | 496 kts | 226° |
| 2026-04-20 18:59 | 3.94786 | 41.87213 | 37967 ft | 496 kts | 226° |
| 2026-04-20 19:00 | 3.89679 | 41.82566 | 37969 ft | 496 kts | 220° |
| 2026-04-20 19:00 | 3.85188 | 41.78984 | 37969 ft | 497 kts | 218° |
| 2026-04-20 19:01 | 3.78851 | 41.73953 | 37969 ft | 497 kts | 219° |
| 2026-04-20 19:01 | 3.74380 | 41.70329 | 37981 ft | 498 kts | 219° |
| 2026-04-20 19:02 | 3.69003 | 41.65945 | 37985 ft | 499 kts | 219° |
| 2026-04-20 19:02 | 3.63619 | 41.61542 | 37979 ft | 499 kts | 219° |
| 2026-04-20 19:03 | 3.58241 | 41.57142 | 37983 ft | 499 kts | 219° |
| 2026-04-20 19:03 | 3.52866 | 41.52745 | 37986 ft | 500 kts | 219° |
| 2026-04-20 19:04 | 3.47475 | 41.48336 | 37980 ft | 500 kts | 219° |
| 2026-04-20 19:04 | 3.42085 | 41.43930 | 38001 ft | 501 kts | 219° |
| 2026-04-20 19:05 | 3.36687 | 41.39516 | 38010 ft | 502 kts | 219° |
| 2026-04-20 19:05 | 3.31314 | 41.35124 | 38006 ft | 502 kts | 219° |
| 2026-04-20 19:06 | 3.25916 | 41.30712 | 38006 ft | 501 kts | 219° |
| 2026-04-20 19:06 | 3.20514 | 41.26298 | 38011 ft | 501 kts | 219° |
| 2026-04-20 19:07 | 3.15116 | 41.21887 | 38018 ft | 501 kts | 219° |
| 2026-04-20 19:07 | 3.09722 | 41.17480 | 38019 ft | 501 kts | 219° |
| 2026-04-20 19:08 | 3.01623 | 41.10864 | 38021 ft | 501 kts | 219° |
| 2026-04-20 19:09 | 2.96224 | 41.06455 | 38011 ft | 501 kts | 219° |
| 2026-04-20 19:09 | 2.90831 | 41.02051 | 38008 ft | 500 kts | 219° |
| 2026-04-20 19:10 | 2.85448 | 40.97655 | 38018 ft | 500 kts | 219° |
| 2026-04-20 19:10 | 2.80057 | 40.93255 | 38014 ft | 500 kts | 219° |
| 2026-04-20 19:11 | 2.74664 | 40.88852 | 38000 ft | 500 kts | 219° |
| 2026-04-20 19:11 | 2.69311 | 40.84482 | 37991 ft | 499 kts | 218° |
| 2026-04-20 19:12 | 2.63934 | 40.80093 | 37985 ft | 498 kts | 218° |
| 2026-04-20 19:12 | 2.58566 | 40.75711 | 37967 ft | 498 kts | 218° |
| 2026-04-20 19:13 | 2.53197 | 40.71330 | 37970 ft | 498 kts | 219° |
| 2026-04-20 19:13 | 2.47828 | 40.66950 | 37969 ft | 498 kts | 219° |
| 2026-04-20 19:14 | 2.42466 | 40.62577 | 37897 ft | 497 kts | 219° |
| 2026-04-20 19:14 | 2.37111 | 40.58224 | 37882 ft | 495 kts | 218° |
| 2026-04-20 19:15 | 2.31735 | 40.53928 | 37888 ft | 494 kts | 218° |
| 2026-04-20 19:15 | 2.26368 | 40.49630 | 37874 ft | 495 kts | 218° |
| 2026-04-20 19:16 | 2.21007 | 40.45332 | 37857 ft | 493 kts | 218° |
| 2026-04-20 19:16 | 2.15654 | 40.41040 | 37850 ft | 493 kts | 218° |
| 2026-04-20 19:17 | 2.10312 | 40.36755 | 37848 ft | 492 kts | 218° |
| 2026-04-20 19:17 | 2.04963 | 40.32464 | 37847 ft | 493 kts | 218° |
| 2026-04-20 19:18 | 1.99620 | 40.28180 | 37849 ft | 492 kts | 219° |
| 2026-04-20 19:18 | 1.94283 | 40.23900 | 37849 ft | 491 kts | 219° |
| 2026-04-20 19:19 | 1.88944 | 40.19619 | 37847 ft | 491 kts | 218° |
| 2026-04-20 19:19 | 1.83607 | 40.15341 | 37846 ft | 492 kts | 219° |
| 2026-04-20 19:20 | 1.78263 | 40.11057 | 37846 ft | 493 kts | 219° |
| 2026-04-20 19:20 | 1.73013 | 40.06658 | 37847 ft | 493 kts | 223° |
| 2026-04-20 19:21 | 1.68198 | 40.01782 | 37846 ft | 493 kts | 227° |
| 2026-04-20 19:21 | 1.63571 | 39.96788 | 37846 ft | 493 kts | 227° |
| 2026-04-20 19:22 | 1.58868 | 39.91811 | 37846 ft | 493 kts | 226° |
| 2026-04-20 19:22 | 1.54097 | 39.86824 | 37846 ft | 493 kts | 226° |
| 2026-04-20 19:23 | 1.49345 | 39.81877 | 37846 ft | 493 kts | 226° |
| 2026-04-20 19:23 | 1.44628 | 39.76973 | 37852 ft | 493 kts | 226° |
| 2026-04-20 19:24 | 1.39878 | 39.72036 | 37852 ft | 493 kts | 226° |
| 2026-04-20 19:24 | 1.35122 | 39.67097 | 37846 ft | 493 kts | 226° |
| 2026-04-20 19:25 | 1.30362 | 39.62153 | 37846 ft | 493 kts | 226° |
| 2026-04-20 19:25 | 1.25614 | 39.57222 | 37862 ft | 493 kts | 226° |
| 2026-04-20 19:26 | 1.20861 | 39.52286 | 37849 ft | 493 kts | 226° |
| 2026-04-20 19:26 | 1.16114 | 39.47358 | 37846 ft | 492 kts | 226° |
| 2026-04-20 19:27 | 1.11368 | 39.42430 | 37850 ft | 492 kts | 226° |
| 2026-04-20 19:27 | 1.06615 | 39.37496 | 37852 ft | 492 kts | 226° |
| 2026-04-20 19:28 | 1.01870 | 39.32570 | 37852 ft | 492 kts | 226° |
| 2026-04-20 19:28 | 0.97122 | 39.27640 | 37850 ft | 492 kts | 226° |
| 2026-04-20 19:29 | 0.92382 | 39.22720 | 37846 ft | 492 kts | 226° |
| 2026-04-20 19:29 | 0.87636 | 39.17794 | 37846 ft | 491 kts | 226° |
| 2026-04-20 19:30 | 0.82895 | 39.12872 | 37846 ft | 491 kts | 226° |
| 2026-04-20 19:30 | 0.78157 | 39.07954 | 37847 ft | 491 kts | 226° |
| 2026-04-20 19:31 | 0.73416 | 39.03034 | 37848 ft | 491 kts | 226° |
| 2026-04-20 19:31 | 0.68707 | 38.98147 | 37847 ft | 491 kts | 226° |
| 2026-04-20 19:32 | 0.63973 | 38.93234 | 37846 ft | 491 kts | 226° |
| 2026-04-20 19:32 | 0.59242 | 38.88323 | 37865 ft | 490 kts | 226° |
| 2026-04-20 19:33 | 0.54516 | 38.83419 | 37870 ft | 490 kts | 226° |
| 2026-04-20 19:33 | 0.49791 | 38.78516 | 37866 ft | 490 kts | 226° |
| 2026-04-20 19:34 | 0.45070 | 38.73616 | 37865 ft | 489 kts | 226° |
| 2026-04-20 19:34 | 0.40346 | 38.68714 | 37874 ft | 489 kts | 226° |
| 2026-04-20 19:35 | 0.36446 | 38.64667 | 37906 ft | 484 kts | 227° |
| 2026-04-20 19:35 | 0.30977 | 38.58992 | 37890 ft | 487 kts | 226° |
| 2026-04-20 19:36 | 0.26263 | 38.54100 | 37895 ft | 490 kts | 225° |
| 2026-04-20 19:36 | 0.21567 | 38.49227 | 37913 ft | 485 kts | 225° |
| 2026-04-20 19:37 | 0.16896 | 38.44381 | 37919 ft | 484 kts | 226° |
| 2026-04-20 19:37 | 0.12225 | 38.39533 | 37952 ft | 483 kts | 225° |
| 2026-04-20 19:38 | 0.07575 | 38.34708 | 37967 ft | 481 kts | 226° |
| 2026-04-20 19:38 | 0.02948 | 38.29907 | 37972 ft | 478 kts | 226° |
| 2026-04-20 19:39 | -0.01672 | 38.25113 | 37962 ft | 482 kts | 226° |
| 2026-04-20 19:39 | -0.06318 | 38.20292 | 37962 ft | 487 kts | 226° |
| 2026-04-20 19:40 | -0.11003 | 38.15431 | 37689 ft | 484 kts | 226° |
| 2026-04-20 19:40 | -0.13339 | 38.13007 | 36990 ft | 484 kts | 225° |
| 2026-04-20 19:40 | -0.15682 | 38.10575 | 36283 ft | 485 kts | 225° |
| 2026-04-20 19:40 | -0.18023 | 38.08147 | 35597 ft | 486 kts | 226° |
| 2026-04-20 19:41 | -0.20367 | 38.05715 | 35014 ft | 484 kts | 226° |
| 2026-04-20 19:41 | -0.22694 | 38.03299 | 34480 ft | 482 kts | 226° |
| 2026-04-20 19:41 | -0.25016 | 38.00890 | 33965 ft | 480 kts | 226° |
| 2026-04-20 19:41 | -0.27324 | 37.98495 | 33460 ft | 477 kts | 226° |
| 2026-04-20 19:42 | -0.29620 | 37.96112 | 32968 ft | 474 kts | 226° |
| 2026-04-20 19:42 | -0.31906 | 37.93740 | 32491 ft | 471 kts | 225° |
| 2026-04-20 19:42 | -0.34171 | 37.91390 | 32024 ft | 468 kts | 225° |
| 2026-04-20 19:42 | -0.36424 | 37.89052 | 31562 ft | 465 kts | 225° |
| 2026-04-20 19:43 | -0.38659 | 37.86733 | 31105 ft | 461 kts | 225° |
| 2026-04-20 19:43 | -0.40874 | 37.84434 | 30651 ft | 458 kts | 225° |
| 2026-04-20 19:43 | -0.43073 | 37.82152 | 30206 ft | 454 kts | 225° |
| 2026-04-20 19:43 | -0.45254 | 37.79889 | 29753 ft | 451 kts | 225° |
| 2026-04-20 19:44 | -0.47417 | 37.77644 | 29272 ft | 447 kts | 225° |
| 2026-04-20 19:44 | -0.49568 | 37.75412 | 28775 ft | 444 kts | 225° |
| 2026-04-20 19:44 | -0.51709 | 37.73190 | 28276 ft | 441 kts | 225° |
| 2026-04-20 19:44 | -0.53832 | 37.70987 | 27773 ft | 439 kts | 225° |
| 2026-04-20 19:45 | -0.55939 | 37.68800 | 27288 ft | 436 kts | 225° |
| 2026-04-20 19:45 | -0.58036 | 37.66624 | 26805 ft | 433 kts | 225° |
| 2026-04-20 19:45 | -0.60113 | 37.64468 | 26323 ft | 430 kts | 225° |
| 2026-04-20 19:45 | -0.62177 | 37.62327 | 25841 ft | 427 kts | 225° |
| 2026-04-20 19:46 | -0.64229 | 37.60197 | 25355 ft | 424 kts | 225° |
| 2026-04-20 19:46 | -0.66269 | 37.58079 | 24874 ft | 422 kts | 225° |
| 2026-04-20 19:46 | -0.68295 | 37.55976 | 24395 ft | 419 kts | 225° |
| 2026-04-20 19:46 | -0.70310 | 37.53886 | 23916 ft | 416 kts | 225° |
| 2026-04-20 19:47 | -0.72315 | 37.51805 | 23440 ft | 414 kts | 225° |
| 2026-04-20 19:47 | -0.74303 | 37.49741 | 22967 ft | 411 kts | 225° |
| 2026-04-20 19:47 | -0.76282 | 37.47687 | 22493 ft | 409 kts | 225° |
| 2026-04-20 19:47 | -0.78247 | 37.45647 | 22014 ft | 407 kts | 225° |
| 2026-04-20 19:48 | -0.80204 | 37.43616 | 21535 ft | 404 kts | 225° |
| 2026-04-20 19:48 | -0.82148 | 37.41598 | 21056 ft | 402 kts | 225° |
| 2026-04-20 19:48 | -0.83434 | 37.40263 | 20738 ft | 401 kts | 225° |
| 2026-04-20 19:48 | -0.86012 | 37.37587 | 20095 ft | 398 kts | 225° |
| 2026-04-20 19:49 | -0.87282 | 37.36269 | 19780 ft | 397 kts | 224° |
| 2026-04-20 19:49 | -0.89194 | 37.34284 | 19310 ft | 395 kts | 225° |
| 2026-04-20 19:49 | -0.91096 | 37.32310 | 18837 ft | 393 kts | 225° |
| 2026-04-20 19:49 | -0.92988 | 37.30346 | 18358 ft | 392 kts | 225° |
| 2026-04-20 19:50 | -0.94879 | 37.28382 | 17867 ft | 391 kts | 225° |
| 2026-04-20 19:50 | -0.96755 | 37.26435 | 17396 ft | 389 kts | 225° |
| 2026-04-20 19:50 | -0.98633 | 37.24486 | 16902 ft | 388 kts | 225° |
| 2026-04-20 19:50 | -1.00498 | 37.22550 | 16435 ft | 386 kts | 225° |
| 2026-04-20 19:51 | -1.02358 | 37.20619 | 15970 ft | 384 kts | 224° |
| 2026-04-20 19:51 | -1.04204 | 37.18702 | 15513 ft | 382 kts | 224° |
| 2026-04-20 19:51 | -1.06038 | 37.16797 | 15066 ft | 380 kts | 224° |
| 2026-04-20 19:51 | -1.07863 | 37.14904 | 14686 ft | 375 kts | 224° |
| 2026-04-20 19:52 | -1.09668 | 37.13029 | 14266 ft | 373 kts | 224° |
| 2026-04-20 19:52 | -1.11460 | 37.11168 | 13847 ft | 370 kts | 224° |
| 2026-04-20 19:52 | -1.13235 | 37.09325 | 13433 ft | 368 kts | 224° |
| 2026-04-20 19:52 | -1.15006 | 37.07486 | 13022 ft | 365 kts | 224° |
| 2026-04-20 19:53 | -1.16764 | 37.05661 | 12609 ft | 363 kts | 224° |
| 2026-04-20 19:53 | -1.18509 | 37.03849 | 12185 ft | 361 kts | 224° |
| 2026-04-20 19:53 | -1.20250 | 37.02042 | 11754 ft | 360 kts | 224° |
| 2026-04-20 19:53 | -1.21981 | 37.00244 | 11321 ft | 358 kts | 224° |
| 2026-04-20 19:54 | -1.23706 | 36.98452 | 10831 ft | 359 kts | 224° |
| 2026-04-20 19:54 | -1.25430 | 36.96662 | 10463 ft | 355 kts | 224° |
| 2026-04-20 19:54 | -1.27111 | 36.94917 | 10377 ft | 343 kts | 224° |
| 2026-04-20 19:54 | -1.28742 | 36.93222 | 10295 ft | 331 kts | 223° |
| 2026-04-20 19:55 | -1.30313 | 36.91590 | 10215 ft | 320 kts | 223° |
| 2026-04-20 19:55 | -1.31838 | 36.90006 | 10037 ft | 314 kts | 223° |
| 2026-04-20 19:55 | -1.33349 | 36.88437 | 9684 ft | 314 kts | 223° |
| 2026-04-20 19:55 | -1.34865 | 36.86862 | 9355 ft | 313 kts | 224° |
| 2026-04-20 19:56 | -1.36377 | 36.85310 | 9023 ft | 311 kts | 222° |
| 2026-04-20 19:56 | -1.38123 | 36.84099 | 8682 ft | 302 kts | 201° |
| 2026-04-20 19:56 | -1.40116 | 36.83728 | 8580 ft | 284 kts | 175° |
| 2026-04-20 19:56 | -1.41917 | 36.84201 | 8508 ft | 264 kts | 150° |
| 2026-04-20 19:57 | -1.43222 | 36.85362 | 8427 ft | 244 kts | 123° |
| 2026-04-20 19:57 | -1.43773 | 36.86904 | 8175 ft | 235 kts | 96° |
| 2026-04-20 19:57 | -1.43490 | 36.88510 | 7744 ft | 240 kts | 67° |
| 2026-04-20 19:57 | -1.42412 | 36.89784 | 7568 ft | 244 kts | 40° |
| 2026-04-20 19:58 | -1.40950 | 36.90629 | 7613 ft | 243 kts | 27° |
| 2026-04-20 19:58 | -1.39394 | 36.91208 | 7578 ft | 234 kts | 22° |
| 2026-04-20 19:58 | -1.37912 | 36.91792 | 7513 ft | 223 kts | 25° |
| 2026-04-20 19:58 | -1.36511 | 36.92389 | 7375 ft | 217 kts | 21° |
| 2026-04-20 19:59 | -1.35025 | 36.92541 | 7194 ft | 214 kts | 3° |
| 2026-04-20 19:59 | -1.33562 | 36.92297 | 7005 ft | 213 kts | 350° |
| 2026-04-20 19:59 | -1.32211 | 36.91714 | 6786 ft | 212 kts | 335° |
| 2026-04-20 19:59 | -1.30956 | 36.91035 | 6686 ft | 204 kts | 342° |
| 2026-04-20 20:00 | -1.29510 | 36.91048 | 6574 ft | 222 kts | 14° |
| 2026-04-20 20:00 | -1.28127 | 36.91932 | 6836 ft | 257 kts | 44° |
| 2026-04-20 20:00 | -1.27116 | 36.93582 | 6822 ft | 306 kts | 68° |
| 2026-04-20 20:00 | -1.26774 | 36.95843 | 6736 ft | 354 kts | 90° |
| 2026-04-20 20:01 | -1.27314 | 36.98384 | 6788 ft | 394 kts | 110° |
| 2026-04-20 20:01 | -1.28797 | 37.00735 | 7574 ft | 406 kts | 129° |
| 2026-04-20 20:01 | -1.30843 | 37.02602 | 9103 ft | 390 kts | 137° |
| 2026-04-20 20:01 | -1.32688 | 37.04494 | 10666 ft | 371 kts | 124° |
| 2026-04-20 20:02 | -1.33961 | 37.06785 | 11129 ft | 393 kts | 111° |
| 2026-04-20 20:02 | -1.34546 | 37.09551 | 11031 ft | 419 kts | 91° |
| 2026-04-20 20:02 | -1.34126 | 37.12417 | 12054 ft | 414 kts | 72° |
| 2026-04-20 20:02 | -1.32832 | 37.14931 | 13504 ft | 404 kts | 56° |
| 2026-04-20 20:03 | -1.30882 | 37.16953 | 14375 ft | 414 kts | 43° |
| 2026-04-20 20:03 | -1.28331 | 37.18514 | 14147 ft | 446 kts | 25° |
| 2026-04-20 20:03 | -1.25365 | 37.19416 | 15119 ft | 441 kts | 15° |
| 2026-04-20 20:03 | -1.22404 | 37.20015 | 16530 ft | 429 kts | 13° |
| 2026-04-20 20:04 | -1.19384 | 37.20540 | 16499 ft | 455 kts | 11° |
| 2026-04-20 20:04 | -1.16204 | 37.21037 | 16664 ft | 466 kts | 11° |
| 2026-04-20 20:04 | -1.13039 | 37.21525 | 17851 ft | 452 kts | 11° |
| 2026-04-20 20:04 | -1.09958 | 37.22001 | 18641 ft | 455 kts | 11° |
| 2026-04-20 20:05 | -1.06738 | 37.22470 | 18311 ft | 476 kts | 7° |
| 2026-04-20 20:05 | -1.03432 | 37.22230 | 18912 ft | 477 kts | 349° |
| 2026-04-20 20:05 | -1.00385 | 37.21060 | 20096 ft | 470 kts | 336° |
| 2026-04-20 20:05 | -0.97571 | 37.19224 | 19689 ft | 498 kts | 320° |
| 2026-04-20 20:06 | -0.95311 | 37.16580 | 20015 ft | 503 kts | 303° |
| 2026-04-20 20:06 | -0.93930 | 37.13438 | 21303 ft | 486 kts | 286° |
| 2026-04-20 20:06 | -0.93259 | 37.10092 | 21258 ft | 504 kts | 275° |
| 2026-04-20 20:06 | -0.93494 | 37.06576 | 21406 ft | 510 kts | 257° |
| 2026-04-20 20:07 | -0.94703 | 37.03322 | 22517 ft | 492 kts | 241° |
| 2026-04-20 20:07 | -0.96584 | 37.00442 | 22523 ft | 505 kts | 230° |
| 2026-04-20 20:07 | -0.99211 | 36.98078 | 22608 ft | 509 kts | 213° |
| 2026-04-20 20:07 | -1.02308 | 36.96603 | 23645 ft | 492 kts | 198° |
| 2026-04-20 20:08 | -1.05675 | 36.95810 | 23405 ft | 508 kts | 185° |
| 2026-04-20 20:08 | -1.09215 | 36.95947 | 23563 ft | 508 kts | 168° |
| 2026-04-20 20:08 | -1.12534 | 36.97070 | 24570 ft | 495 kts | 155° |
| 2026-04-20 20:08 | -1.15499 | 36.98824 | 24102 ft | 512 kts | 141° |
| 2026-04-20 20:09 | -1.17973 | 37.01442 | 24338 ft | 510 kts | 124° |
| 2026-04-20 20:09 | -1.19561 | 37.04533 | 25299 ft | 498 kts | 112° |
| 2026-04-20 20:09 | -1.20549 | 37.07899 | 24886 ft | 512 kts | 102° |
| 2026-04-20 20:09 | -1.21035 | 37.11417 | 25239 ft | 506 kts | 91° |
| 2026-04-20 20:10 | -1.20716 | 37.14886 | 25654 ft | 507 kts | 80° |
| 2026-04-20 20:10 | -1.19592 | 37.18272 | 25314 ft | 521 kts | 64° |
| 2026-04-20 20:10 | -1.17537 | 37.21202 | 26135 ft | 509 kts | 49° |
| 2026-04-20 20:10 | -1.14905 | 37.23613 | 25894 ft | 524 kts | 37° |
| 2026-04-20 20:11 | -1.11677 | 37.25332 | 26031 ft | 525 kts | 22° |
| 2026-04-20 20:11 | -1.08190 | 37.26255 | 26592 ft | 521 kts | 11° |
| 2026-04-20 20:11 | -1.04513 | 37.26419 | 26163 ft | 537 kts | 355° |
| 2026-04-20 20:11 | -1.00914 | 37.25554 | 26847 ft | 526 kts | 340° |
| 2026-04-20 20:12 | -0.97636 | 37.23967 | 26664 ft | 539 kts | 329° |
| 2026-04-20 20:12 | -0.94735 | 37.21560 | 26542 ft | 545 kts | 313° |
| 2026-04-20 20:12 | -0.92602 | 37.18501 | 27313 ft | 534 kts | 300° |
| 2026-04-20 20:13 | -0.90578 | 37.11304 | 27192 ft | 541 kts | 270° |
| 2026-04-20 20:13 | -0.90931 | 37.07530 | 27332 ft | 544 kts | 259° |
| 2026-04-20 20:13 | -0.92109 | 37.03971 | 27074 ft | 549 kts | 243° |
| 2026-04-20 20:13 | -0.94185 | 37.00849 | 27756 ft | 537 kts | 230° |
| 2026-04-20 20:14 | -0.96861 | 36.98200 | 27283 ft | 548 kts | 217° |
| 2026-04-20 20:14 | -1.00153 | 36.96332 | 27586 ft | 538 kts | 200° |
| 2026-04-20 20:14 | -1.03711 | 36.95307 | 27721 ft | 538 kts | 189° |
| 2026-04-20 20:14 | -1.07466 | 36.95110 | 27450 ft | 541 kts | 174° |
| 2026-04-20 20:15 | -1.11083 | 36.95914 | 28073 ft | 529 kts | 161° |
| 2026-04-20 20:15 | -1.14453 | 36.97445 | 27587 ft | 538 kts | 147° |
| 2026-04-20 20:15 | -1.17282 | 36.99826 | 28023 ft | 526 kts | 131° |
| 2026-04-20 20:15 | -1.19480 | 37.02758 | 27894 ft | 532 kts | 120° |
| 2026-04-20 20:16 | -1.20945 | 37.06154 | 27811 ft | 532 kts | 107° |
| 2026-04-20 20:16 | -1.21794 | 37.09704 | 28284 ft | 524 kts | 99° |
| 2026-04-20 20:16 | -1.21945 | 37.13373 | 27864 ft | 534 kts | 84° |
| 2026-04-20 20:16 | -1.21088 | 37.16944 | 28378 ft | 525 kts | 71° |
| 2026-04-20 20:17 | -1.19482 | 37.20256 | 27970 ft | 537 kts | 58° |
| 2026-04-20 20:17 | -1.17037 | 37.23056 | 28236 ft | 531 kts | 41° |
| 2026-04-20 20:17 | -1.10582 | 37.26677 | 28040 ft | 542 kts | 16° |
| 2026-04-20 20:18 | -1.06846 | 37.27350 | 27723 ft | 550 kts | 3° |
| 2026-04-20 20:18 | -1.03042 | 37.27061 | 27914 ft | 547 kts | 349° |
| 2026-04-20 20:18 | -0.99476 | 37.25866 | 28361 ft | 543 kts | 338° |
| 2026-04-20 20:18 | -0.96195 | 37.23919 | 27987 ft | 553 kts | 322° |
| 2026-04-20 20:19 | -0.93584 | 37.21230 | 28511 ft | 545 kts | 309° |
| 2026-04-20 20:19 | -0.91530 | 37.18005 | 28031 ft | 557 kts | 296° |
| 2026-04-20 20:19 | -0.90370 | 37.14336 | 28374 ft | 549 kts | 279° |
| 2026-04-20 20:19 | -0.90057 | 37.10537 | 28301 ft | 554 kts | 269° |
| 2026-04-20 20:20 | -0.90638 | 37.06713 | 28159 ft | 556 kts | 253° |
| 2026-04-20 20:20 | -0.92134 | 37.03208 | 28536 ft | 549 kts | 241° |
| 2026-04-20 20:20 | -0.94350 | 37.00066 | 28107 ft | 556 kts | 226° |
| 2026-04-20 20:20 | -0.97293 | 36.97639 | 28665 ft | 543 kts | 213° |
| 2026-04-20 20:21 | -1.00657 | 36.95872 | 28216 ft | 552 kts | 200° |
| 2026-04-20 20:21 | -1.04369 | 36.95023 | 28446 ft | 542 kts | 184° |
| 2026-04-20 20:21 | -1.08113 | 36.95053 | 28474 ft | 542 kts | 173° |
| 2026-04-20 20:21 | -1.11788 | 36.95950 | 28247 ft | 543 kts | 157° |
| 2026-04-20 20:22 | -1.13986 | 36.97068 | 28732 ft | 532 kts | 149° |
| 2026-04-20 20:22 | -1.17859 | 37.00182 | 28241 ft | 541 kts | 130° |
| 2026-04-20 20:22 | -1.19899 | 37.03289 | 28768 ft | 528 kts | 116° |
| 2026-04-20 20:22 | -1.21228 | 37.06734 | 28441 ft | 536 kts | 105° |
| 2026-04-20 20:23 | -1.21868 | 37.10393 | 28500 ft | 532 kts | 92° |
| 2026-04-20 20:23 | -1.21642 | 37.14059 | 28587 ft | 533 kts | 81° |
| 2026-04-20 20:23 | -1.20559 | 37.17625 | 28330 ft | 538 kts | 65° |
| 2026-04-20 20:23 | -1.18621 | 37.20707 | 28796 ft | 531 kts | 53° |
| 2026-04-20 20:24 | -1.15986 | 37.23407 | 28303 ft | 543 kts | 39° |
| 2026-04-20 20:24 | -1.12785 | 37.25272 | 28781 ft | 533 kts | 25° |
| 2026-04-20 20:24 | -1.09272 | 37.26498 | 28469 ft | 543 kts | 14° |
| 2026-04-20 20:24 | -1.05491 | 37.26873 | 28144 ft | 551 kts | 359° |
| 2026-04-20 20:25 | -1.01701 | 37.26292 | 28248 ft | 550 kts | 344° |
| 2026-04-20 20:25 | -0.98212 | 37.24821 | 28638 ft | 546 kts | 333° |
| 2026-04-20 20:25 | -0.95071 | 37.22619 | 28263 ft | 556 kts | 318° |
| 2026-04-20 20:25 | -0.92625 | 37.19687 | 28765 ft | 548 kts | 305° |
| 2026-04-20 20:26 | -0.90816 | 37.16302 | 28274 ft | 560 kts | 291° |
| 2026-04-20 20:26 | -0.89938 | 37.12543 | 28651 ft | 550 kts | 275° |
| 2026-04-20 20:26 | -0.89897 | 37.08718 | 28484 ft | 557 kts | 264° |
| 2026-04-20 20:26 | -0.90770 | 37.04939 | 28416 ft | 556 kts | 249° |
| 2026-04-20 20:27 | -0.92512 | 37.01539 | 28695 ft | 551 kts | 237° |
| 2026-04-20 20:27 | -0.94961 | 36.98564 | 28319 ft | 557 kts | 222° |
| 2026-04-20 20:27 | -0.98060 | 36.96356 | 28831 ft | 545 kts | 209° |
| 2026-04-20 20:27 | -1.01554 | 36.94824 | 28355 ft | 553 kts | 195° |
| 2026-04-20 20:28 | -1.04091 | 36.94325 | 28472 ft | 547 kts | 184° |
| 2026-04-20 20:28 | -1.09068 | 36.94525 | 28515 ft | 545 kts | 168° |
| 2026-04-20 20:28 | -1.12658 | 36.95702 | 28501 ft | 541 kts | 153° |
| 2026-04-20 20:28 | -1.15789 | 36.97700 | 28796 ft | 535 kts | 141° |
| 2026-04-20 20:29 | -1.18428 | 37.00355 | 28408 ft | 541 kts | 126° |
| 2026-04-20 20:29 | -1.20240 | 37.03587 | 28905 ft | 530 kts | 113° |
| 2026-04-20 20:29 | -1.21380 | 37.07119 | 28479 ft | 538 kts | 103° |
| 2026-04-20 20:29 | -1.21872 | 37.10787 | 28808 ft | 528 kts | 91° |
| 2026-04-20 20:30 | -1.21577 | 37.14475 | 28477 ft | 537 kts | 79° |
| 2026-04-20 20:30 | -1.20343 | 37.17987 | 28589 ft | 534 kts | 63° |
| 2026-04-20 20:30 | -1.18314 | 37.21072 | 28683 ft | 536 kts | 52° |
| 2026-04-20 20:30 | -1.16598 | 37.22860 | 28379 ft | 543 kts | 41° |
| 2026-04-20 20:31 | -1.13443 | 37.24900 | 28872 ft | 534 kts | 27° |
| 2026-04-20 20:31 | -1.09972 | 37.26253 | 28529 ft | 544 kts | 16° |
| 2026-04-20 20:31 | -1.06197 | 37.26763 | 28240 ft | 551 kts | 1° |
| 2026-04-20 20:31 | -1.02380 | 37.26345 | 28163 ft | 554 kts | 347° |
| 2026-04-20 20:32 | -0.98832 | 37.24974 | 28810 ft | 544 kts | 335° |
| 2026-04-20 20:32 | -0.95619 | 37.22911 | 28338 ft | 556 kts | 321° |
| 2026-04-20 20:32 | -0.93052 | 37.20071 | 28805 ft | 548 kts | 307° |
| 2026-04-20 20:32 | -0.91132 | 37.16751 | 28455 ft | 558 kts | 294° |
| 2026-04-20 20:33 | -0.90070 | 37.13021 | 28499 ft | 556 kts | 278° |
| 2026-04-20 20:33 | -0.89929 | 37.09191 | 28698 ft | 554 kts | 267° |
| 2026-04-20 20:33 | -0.90627 | 37.05385 | 28366 ft | 560 kts | 251° |
| 2026-04-20 20:33 | -0.92268 | 37.01924 | 28889 ft | 549 kts | 239° |
| 2026-04-20 20:34 | -0.94548 | 36.98895 | 28411 ft | 558 kts | 225° |
| 2026-04-20 20:34 | -0.97570 | 36.96527 | 28785 ft | 545 kts | 210° |
| 2026-04-20 20:34 | -1.01047 | 36.94872 | 28574 ft | 551 kts | 198° |
| 2026-04-20 20:34 | -1.04785 | 36.94112 | 28533 ft | 547 kts | 182° |
| 2026-04-20 20:35 | -1.08490 | 36.94280 | 28779 ft | 542 kts | 171° |
| 2026-04-20 20:35 | -1.12146 | 36.95265 | 28408 ft | 546 kts | 156° |
| 2026-04-20 20:35 | -1.15365 | 36.97161 | 28940 ft | 533 kts | 143° |
| 2026-04-20 20:35 | -1.18115 | 36.99683 | 28463 ft | 542 kts | 129° |
| 2026-04-20 20:36 | -1.20093 | 37.02843 | 28836 ft | 530 kts | 114° |
| 2026-04-20 20:36 | -1.21326 | 37.06321 | 28650 ft | 536 kts | 104° |
| 2026-04-20 20:36 | -1.21937 | 37.09993 | 28457 ft | 536 kts | 92° |
| 2026-04-20 20:36 | -1.21634 | 37.13660 | 28850 ft | 530 kts | 80° |
| 2026-04-20 20:37 | -1.20540 | 37.17209 | 28380 ft | 540 kts | 65° |
| 2026-04-20 20:37 | -1.18523 | 37.20328 | 28894 ft | 531 kts | 52° |
| 2026-04-20 20:37 | -1.15888 | 37.22950 | 28494 ft | 542 kts | 39° |
| 2026-04-20 20:37 | -1.12626 | 37.24843 | 28625 ft | 539 kts | 24° |
| 2026-04-20 20:38 | -1.09081 | 37.26001 | 28627 ft | 542 kts | 13° |
| 2026-04-20 20:38 | -1.05292 | 37.26322 | 28436 ft | 548 kts | 358° |
| 2026-04-20 20:38 | -1.01581 | 37.25671 | 28844 ft | 544 kts | 346° |
| 2026-04-20 20:38 | -0.98037 | 37.24241 | 28382 ft | 556 kts | 331° |
| 2026-04-20 20:39 | -0.94983 | 37.21921 | 28875 ft | 547 kts | 317° |
| 2026-04-20 20:39 | -0.92484 | 37.19024 | 28492 ft | 558 kts | 304° |
| 2026-04-20 20:39 | -0.90763 | 37.15555 | 28651 ft | 553 kts | 289° |
| 2026-04-20 20:39 | -0.89895 | 37.11832 | 28674 ft | 556 kts | 278° |
| 2026-04-20 20:40 | -0.89882 | 37.07952 | 28435 ft | 560 kts | 262° |
| 2026-04-20 20:40 | -0.90843 | 37.04240 | 28903 ft | 551 kts | 250° |
| 2026-04-20 20:40 | -0.92554 | 37.00776 | 28426 ft | 560 kts | 236° |
| 2026-04-20 20:40 | -0.95097 | 36.97898 | 28906 ft | 547 kts | 222° |
| 2026-04-20 20:41 | -0.98161 | 36.95623 | 28513 ft | 555 kts | 209° |
| 2026-04-20 20:41 | -1.01721 | 36.94174 | 28643 ft | 547 kts | 193° |
| 2026-04-20 20:41 | -1.05457 | 36.93603 | 28684 ft | 546 kts | 182° |
| 2026-04-20 20:41 | -1.09250 | 36.93905 | 28502 ft | 546 kts | 166° |
| 2026-04-20 20:42 | -1.12776 | 36.95141 | 28893 ft | 537 kts | 154° |
| 2026-04-20 20:42 | -1.15975 | 36.97106 | 28446 ft | 544 kts | 140° |
| 2026-04-20 20:42 | -1.18483 | 36.99807 | 28974 ft | 528 kts | 126° |
| 2026-04-20 20:42 | -1.20339 | 37.02981 | 28631 ft | 520 kts | 111° |
| 2026-04-20 20:43 | -1.21423 | 37.06396 | 28370 ft | 513 kts | 102° |
| 2026-04-20 20:43 | -1.22008 | 37.09875 | 28066 ft | 502 kts | 93° |
| 2026-04-20 20:43 | -1.21763 | 37.13275 | 27765 ft | 483 kts | 79° |
| 2026-04-20 20:43 | -1.20682 | 37.16333 | 27456 ft | 467 kts | 63° |
| 2026-04-20 20:44 | -1.18834 | 37.18934 | 27142 ft | 453 kts | 47° |
| 2026-04-20 20:44 | -1.16398 | 37.20847 | 26829 ft | 442 kts | 31° |
| 2026-04-20 20:44 | -1.13591 | 37.21988 | 26527 ft | 431 kts | 17° |
| 2026-04-20 20:44 | -1.10699 | 37.22645 | 26216 ft | 421 kts | 12° |
| 2026-04-20 20:45 | -1.07859 | 37.23140 | 25899 ft | 409 kts | 7° |
| 2026-04-20 20:45 | -1.05054 | 37.22970 | 25583 ft | 401 kts | 349° |
| 2026-04-20 20:45 | -1.02499 | 37.21938 | 25268 ft | 395 kts | 330° |
| 2026-04-20 20:45 | -1.00445 | 37.20166 | 24954 ft | 388 kts | 310° |
| 2026-04-20 20:46 | -0.99115 | 37.17866 | 24640 ft | 380 kts | 291° |
| 2026-04-20 20:46 | -0.98637 | 37.15307 | 24325 ft | 372 kts | 271° |
| 2026-04-20 20:46 | -0.99048 | 37.12802 | 24011 ft | 363 kts | 250° |
| 2026-04-20 20:46 | -1.00277 | 37.10642 | 23695 ft | 354 kts | 229° |
| 2026-04-20 20:47 | -1.02135 | 37.09111 | 23381 ft | 344 kts | 208° |
| 2026-04-20 20:47 | -1.04361 | 37.08383 | 23066 ft | 334 kts | 186° |
| 2026-04-20 20:47 | -1.06632 | 37.08539 | 22750 ft | 324 kts | 164° |
| 2026-04-20 20:47 | -1.08607 | 37.09525 | 22436 ft | 316 kts | 142° |
| 2026-04-20 20:48 | -1.10005 | 37.11170 | 22128 ft | 308 kts | 120° |
| 2026-04-20 20:48 | -1.10811 | 37.13123 | 21850 ft | 302 kts | 108° |
| 2026-04-20 20:48 | -1.11345 | 37.15141 | 21538 ft | 298 kts | 103° |
| 2026-04-20 20:48 | -1.11758 | 37.17159 | 21225 ft | 294 kts | 101° |
| 2026-04-20 20:49 | -1.12106 | 37.19162 | 20911 ft | 291 kts | 99° |
| 2026-04-20 20:49 | -1.12354 | 37.21150 | 20576 ft | 286 kts | 91° |
| 2026-04-20 20:49 | -1.11922 | 37.23062 | 20228 ft | 283 kts | 67° |
| 2026-04-20 20:49 | -1.10760 | 37.24622 | 19934 ft | 280 kts | 46° |
| 2026-04-20 20:50 | -1.09083 | 37.25587 | 19591 ft | 281 kts | 21° |
| 2026-04-20 20:50 | -1.07147 | 37.25721 | 19275 ft | 282 kts | 356° |
| 2026-04-20 20:50 | -1.05328 | 37.24996 | 18958 ft | 284 kts | 330° |
| 2026-04-20 20:50 | -1.03997 | 37.23556 | 18641 ft | 285 kts | 304° |
| 2026-04-20 20:51 | -1.03414 | 37.21698 | 18325 ft | 283 kts | 278° |
| 2026-04-20 20:51 | -1.03487 | 37.19864 | 18120 ft | 276 kts | 268° |
| 2026-04-20 20:51 | -1.03195 | 37.17993 | 17539 ft | 279 kts | 292° |
| 2026-04-20 20:51 | -1.01998 | 37.16479 | 16923 ft | 278 kts | 323° |
| 2026-04-20 20:52 | -1.00320 | 37.15686 | 16601 ft | 267 kts | 348° |
| 2026-04-20 20:52 | -0.98519 | 37.15636 | 16294 ft | 255 kts | 11° |
| 2026-04-20 20:52 | -0.96903 | 37.16247 | 15997 ft | 245 kts | 32° |
| 2026-04-20 20:52 | -0.95702 | 37.17288 | 15724 ft | 237 kts | 50° |
| 2026-04-20 20:53 | -0.94838 | 37.18749 | 15306 ft | 236 kts | 67° |
| 2026-04-20 20:53 | -0.94438 | 37.20348 | 14858 ft | 239 kts | 81° |
| 2026-04-20 20:53 | -0.94430 | 37.22018 | 14403 ft | 244 kts | 94° |
| 2026-04-20 20:53 | -0.94773 | 37.23678 | 14100 ft | 242 kts | 104° |
| 2026-04-20 20:54 | -0.95403 | 37.25215 | 13888 ft | 237 kts | 113° |
| 2026-04-20 20:54 | -0.96262 | 37.26600 | 13677 ft | 232 kts | 122° |
| 2026-04-20 20:54 | -0.97247 | 37.27769 | 13390 ft | 232 kts | 129° |
| 2026-04-20 20:54 | -0.98441 | 37.28878 | 12959 ft | 237 kts | 135° |
| 2026-04-20 20:55 | -0.99780 | 37.29883 | 12508 ft | 244 kts | 141° |
| 2026-04-20 20:55 | -1.01232 | 37.30788 | 12100 ft | 248 kts | 146° |
| 2026-04-20 20:55 | -1.02745 | 37.31573 | 11904 ft | 242 kts | 150° |
| 2026-04-20 20:55 | -1.04271 | 37.32233 | 11714 ft | 236 kts | 153° |
| 2026-04-20 20:56 | -1.05682 | 37.32742 | 11525 ft | 231 kts | 158° |
| 2026-04-20 20:56 | -1.07366 | 37.33272 | 10867 ft | 246 kts | 163° |
| 2026-04-20 20:56 | -1.09051 | 37.33759 | 10301 ft | 258 kts | 166° |
| 2026-04-20 20:56 | -1.10808 | 37.34240 | 9806 ft | 265 kts | 168° |
| 2026-04-20 20:57 | -1.12569 | 37.34708 | 9645 ft | 256 kts | 169° |
| 2026-04-20 20:57 | -1.14259 | 37.35151 | 9547 ft | 245 kts | 170° |
| 2026-04-20 20:57 | -1.15878 | 37.35544 | 9461 ft | 234 kts | 162° |
| 2026-04-20 20:57 | -1.17434 | 37.35881 | 9342 ft | 224 kts | 163° |
| 2026-04-20 20:58 | -1.18889 | 37.36168 | 9041 ft | 225 kts | 164° |
| 2026-04-20 20:58 | -1.20434 | 37.36454 | 8586 ft | 231 kts | 165° |
| 2026-04-20 20:58 | -1.22021 | 37.36735 | 8141 ft | 238 kts | 166° |
| 2026-04-20 20:58 | -1.23664 | 37.37018 | 7777 ft | 239 kts | 167° |
| 2026-04-20 20:59 | -1.25259 | 37.37287 | 7779 ft | 224 kts | 169° |
| 2026-04-20 20:59 | -1.26749 | 37.37537 | 7722 ft | 211 kts | 171° |
| 2026-04-20 20:59 | -1.28107 | 37.37769 | 7584 ft | 203 kts | 172° |
| 2026-04-20 20:59 | -1.29491 | 37.38010 | 7197 ft | 207 kts | 171° |
| 2026-04-20 21:00 | -1.30937 | 37.38263 | 6744 ft | 214 kts | 171° |
| 2026-04-20 21:00 | -1.32430 | 37.38521 | 6271 ft | 222 kts | 169° |
| 2026-04-20 21:00 | -1.33992 | 37.38784 | 5752 ft | 233 kts | 169° |
| 2026-04-20 21:00 | -1.35606 | 37.39049 | 5377 ft | 236 kts | 170° |
| 2026-04-20 21:01 | -1.37213 | 37.39308 | 5185 ft | 230 kts | 170° |
| 2026-04-20 21:01 | -1.38769 | 37.39552 | 5034 ft | 223 kts | 170° |
| 2026-04-20 21:01 | -1.40084 | 37.39757 | 4926 ft | 14 kts | 103° |
| 2026-04-20 21:01 | -1.40003 | 37.39697 | 4823 ft | 18 kts | 210° |
| 2026-04-20 21:02 | -1.39864 | 37.39544 | 4822 ft | 41 kts | 114° |
| 2026-04-20 21:02 | -1.39837 | 37.39279 | 4739 ft | 35 kts | 88° |
| 2026-04-20 21:02 | -1.40028 | 37.39162 | 4672 ft | 35 kts | 11° |
| 2026-04-20 21:02 | -1.40146 | 37.38934 | 4599 ft | 37 kts | 72° |
| 2026-04-20 21:03 | -1.40162 | 37.38653 | 4524 ft | 38 kts | 73° |
| 2026-04-20 21:03 | -1.40448 | 37.38446 | 4501 ft | 61 kts | 69° |
| 2026-04-20 21:03 | -1.40642 | 37.38242 | 4466 ft | 66 kts | 37° |
| 2026-04-20 21:03 | -1.40894 | 37.38076 | 4445 ft | 41 kts | 36° |
| 2026-04-20 21:04 | -1.41123 | 37.37886 | 4426 ft | 57 kts | 65° |
| 2026-04-20 21:04 | -1.41329 | 37.37838 | 4387 ft | 29 kts | 352° |
| 2026-04-20 21:04 | -1.41133 | 37.37825 | 4431 ft | 27 kts | 358° |
| 2026-04-20 21:04 | -1.40958 | 37.37824 | 4490 ft | 23 kts | 358° |
| 2026-04-20 21:05 | -1.40801 | 37.37826 | 4527 ft | 22 kts | 358° |
| 2026-04-20 21:05 | -1.40658 | 37.37830 | 4553 ft | 20 kts | 359° |
| 2026-04-20 21:05 | -1.40522 | 37.37835 | 4552 ft | 19 kts | 359° |
| 2026-04-20 21:05 | -1.40395 | 37.37842 | 4582 ft | 18 kts | 0° |
| 2026-04-20 21:06 | -1.40269 | 37.37852 | 4572 ft | 19 kts | 3° |
| 2026-04-20 21:06 | -1.40144 | 37.37869 | 4578 ft | 18 kts | 5° |
| 2026-04-20 21:06 | -1.40025 | 37.37885 | 4601 ft | 17 kts | 5° |
| 2026-04-20 21:06 | -1.39913 | 37.37899 | 4617 ft | 16 kts | 5° |
| 2026-04-20 21:07 | -1.39806 | 37.37910 | 4614 ft | 15 kts | 5° |
| 2026-04-20 21:07 | -1.39706 | 37.37916 | 4601 ft | 14 kts | 5° |
| 2026-04-20 21:07 | -1.39612 | 37.37922 | 4620 ft | 13 kts | 5° |
| 2026-04-20 21:07 | -1.39524 | 37.37928 | 4626 ft | 12 kts | 5° |
| 2026-04-20 21:08 | -1.39436 | 37.37935 | 4609 ft | 19 kts | 4° |
| 2026-04-20 21:08 | -1.39293 | 37.37939 | 4550 ft | 33 kts | 1° |
| 2026-04-20 21:08 | -1.39031 | 37.37944 | 4618 ft | 27 kts | 2° |
| 2026-04-20 21:08 | -1.38785 | 37.37946 | 4569 ft | 29 kts | 1° |
| 2026-04-20 21:09 | -1.38589 | 37.37953 | 4639 ft | 27 kts | 2° |
| 2026-04-20 21:09 | -1.38407 | 37.37964 | 4629 ft | 29 kts | 4° |
| 2026-04-20 21:09 | -1.38147 | 37.38007 | 4523 ft | 46 kts | 11° |
| 2026-04-20 21:09 | -1.37887 | 37.38056 | 4531 ft | 30 kts | 12° |
| 2026-04-20 21:10 | -1.37699 | 37.38103 | 4604 ft | 27 kts | 13° |
| 2026-04-20 21:10 | -1.37530 | 37.38153 | 4597 ft | 24 kts | 13° |
| 2026-04-20 21:10 | -1.37380 | 37.38199 | 4618 ft | 21 kts | 14° |
| 2026-04-20 21:10 | -1.37244 | 37.38241 | 4634 ft | 20 kts | 15° |
| 2026-04-20 21:11 | -1.37116 | 37.38281 | 4655 ft | 19 kts | 15° |
| 2026-04-20 21:11 | -1.36994 | 37.38320 | 4674 ft | 18 kts | 15° |
| 2026-04-20 21:11 | -1.36880 | 37.38356 | 4703 ft | 17 kts | 15° |
| 2026-04-20 21:11 | -1.36770 | 37.38391 | 4717 ft | 16 kts | 15° |
| 2026-04-20 21:12 | -1.36666 | 37.38423 | 4697 ft | 17 kts | 15° |
| 2026-04-20 21:12 | -1.36532 | 37.38462 | 4676 ft | 21 kts | 15° |
| 2026-04-20 21:12 | -1.36398 | 37.38503 | 4705 ft | 20 kts | 16° |
| 2026-04-20 21:12 | -1.36270 | 37.38546 | 4696 ft | 19 kts | 15° |
| 2026-04-20 21:13 | -1.36149 | 37.38585 | 4681 ft | 18 kts | 16° |
| 2026-04-20 21:13 | -1.36033 | 37.38619 | 4699 ft | 17 kts | 16° |
| 2026-04-20 21:13 | -1.35923 | 37.38649 | 4730 ft | 16 kts | 17° |
| 2026-04-20 21:13 | -1.35819 | 37.38680 | 4749 ft | 15 kts | 16° |
| 2026-04-20 21:14 | -1.35723 | 37.38715 | 4747 ft | 15 kts | 22° |
| 2026-04-20 21:14 | -1.35633 | 37.38753 | 4772 ft | 14 kts | 22° |
| 2026-04-20 21:14 | -1.35548 | 37.38789 | 4770 ft | 13 kts | 21° |
| 2026-04-20 21:14 | -1.35463 | 37.38826 | 4746 ft | 17 kts | 21° |
| 2026-04-20 21:15 | -1.35327 | 37.38885 | 4729 ft | 21 kts | 21° |
| 2026-04-20 21:15 | -1.35199 | 37.38945 | 4722 ft | 20 kts | 22° |
| 2026-04-20 21:15 | -1.35078 | 37.39000 | 4687 ft | 19 kts | 22° |
| 2026-04-20 21:15 | -1.34961 | 37.39047 | 4721 ft | 18 kts | 22° |
| 2026-04-20 21:16 | -1.34849 | 37.39089 | 4754 ft | 17 kts | 23° |
| 2026-04-20 21:16 | -1.34745 | 37.39132 | 4775 ft | 16 kts | 22° |
| 2026-04-20 21:16 | -1.34680 | 37.39163 | 4775 ft | 15 kts | 22° |
| 2026-04-20 21:16 | -1.34556 | 37.39218 | 4804 ft | 14 kts | 23° |
| 2026-04-20 21:17 | -1.34499 | 37.39244 | 4814 ft | 13 kts | 23° |
| 2026-04-20 21:17 | -1.34392 | 37.39295 | 4813 ft | 12 kts | 23° |
| 2026-04-20 21:17 | -1.34317 | 37.39330 | 4813 ft | 12 kts | 23° |
| 2026-04-20 21:17 | -1.34247 | 37.39364 | 4806 ft | 11 kts | 23° |
| 2026-04-20 21:18 | -1.34203 | 37.39385 | 4805 ft | 10 kts | 23° |
| 2026-04-20 21:18 | -1.34140 | 37.39413 | 4803 ft | 10 kts | 23° |
| 2026-04-20 21:18 | -1.34060 | 37.39447 | 4806 ft | 9 kts | 23° |
| 2026-04-20 21:18 | -1.34022 | 37.39463 | 4814 ft | 9 kts | 23° |
| 2026-04-20 21:19 | -1.33969 | 37.39484 | 4827 ft | 8 kts | 23° |
| 2026-04-20 21:19 | -1.33917 | 37.39504 | 4842 ft | 8 kts | 23° |
| 2026-04-20 21:19 | -1.33869 | 37.39522 | 4853 ft | 7 kts | 23° |
| 2026-04-20 21:20 | -1.33783 | 37.39558 | 4858 ft | 6 kts | 23° |
| 2026-04-20 21:20 | -1.33743 | 37.39576 | 4851 ft | 7 kts | 23° |
| 2026-04-20 21:20 | -1.33673 | 37.39610 | 4827 ft | 16 kts | 23° |
| 2026-04-20 21:20 | -1.33517 | 37.39690 | 4723 ft | 40 kts | 23° |
| 2026-04-20 21:21 | -1.33320 | 37.39805 | 4759 ft | 28 kts | 26° |
| 2026-04-20 21:21 | -1.33158 | 37.39896 | 4785 ft | 25 kts | 27° |
| 2026-04-20 21:21 | -1.33011 | 37.39983 | 4776 ft | 27 kts | 30° |
| 2026-04-20 21:21 | -1.32861 | 37.40111 | 4755 ft | 34 kts | 32° |
| 2026-04-20 21:22 | -1.32572 | 37.40357 | 4546 ft | 50 kts | 41° |
| 2026-04-20 21:22 | -1.32412 | 37.40503 | 4730 ft | 27 kts | 41° |
| 2026-04-20 21:22 | -1.32287 | 37.40623 | 4930 ft | 23 kts | 42° |
| 2026-04-20 21:22 | -1.32174 | 37.40729 | 5118 ft | 22 kts | 42° |
| 2026-04-20 21:23 | -1.32069 | 37.40830 | 5261 ft | 20 kts | 44° |
| 2026-04-20 21:23 | -1.31972 | 37.40925 | 5390 ft | 19 kts | 44° |
| 2026-04-20 21:23 | -1.31877 | 37.41016 | 5474 ft | 19 kts | 45° |
| 2026-04-20 21:23 | -1.31786 | 37.41103 | 5554 ft | 18 kts | 45° |
| 2026-04-20 21:24 | -1.31640 | 37.41254 | 5335 ft | 67 kts | 47° |
| 2026-04-20 21:24 | -1.31175 | 37.41823 | 4398 ft | 140 kts | 50° |
| 2026-04-20 21:24 | -1.30544 | 37.42551 | 4140 ft | 132 kts | 47° |
| 2026-04-20 21:24 | -1.29958 | 37.43158 | 4068 ft | 112 kts | 43° |
| 2026-04-20 21:25 | -1.29421 | 37.43643 | 4015 ft | 95 kts | 39° |
| 2026-04-20 21:25 | -1.28970 | 37.44004 | 4007 ft | 72 kts | 36° |
| 2026-04-20 21:25 | -1.28607 | 37.44274 | 3984 ft | 59 kts | 34° |
| 2026-04-20 21:25 | -1.28288 | 37.44485 | 3945 ft | 52 kts | 31° |
| 2026-04-20 21:26 | -1.28020 | 37.44639 | 3943 ft | 36 kts | 28° |
| 2026-04-20 21:26 | -1.27834 | 37.44738 | 3939 ft | 28 kts | 27° |
| 2026-04-20 21:26 | -1.27671 | 37.44824 | 3945 ft | 25 kts | 26° |
| 2026-04-20 21:26 | -1.27526 | 37.44899 | 3936 ft | 22 kts | 26° |
| 2026-04-20 21:27 | -1.27393 | 37.44965 | 3932 ft | 20 kts | 25° |
| 2026-04-20 21:27 | -1.27270 | 37.45026 | 3941 ft | 19 kts | 25° |
| 2026-04-20 21:27 | -1.27152 | 37.45082 | 3960 ft | 18 kts | 25° |
| 2026-04-20 21:27 | -1.27041 | 37.45135 | 3979 ft | 17 kts | 25° |
| 2026-04-20 21:28 | -1.26934 | 37.45185 | 3986 ft | 16 kts | 25° |
| 2026-04-20 21:28 | -1.26834 | 37.45232 | 3991 ft | 15 kts | 24° |
| 2026-04-20 21:28 | -1.26739 | 37.45275 | 3976 ft | 15 kts | 24° |
| 2026-04-20 21:28 | -1.26650 | 37.45316 | 3956 ft | 14 kts | 24° |
| 2026-04-20 21:29 | -1.26566 | 37.45352 | 3951 ft | 13 kts | 24° |
| 2026-04-20 21:29 | -1.26486 | 37.45385 | 3949 ft | 12 kts | 24° |
| 2026-04-20 21:29 | -1.26411 | 37.45414 | 3953 ft | 11 kts | 24° |
| 2026-04-20 21:29 | -1.26342 | 37.45442 | 3946 ft | 10 kts | 24° |
| 2026-04-20 21:30 | -1.26267 | 37.45474 | 3926 ft | 14 kts | 24° |
| 2026-04-20 21:30 | -1.26159 | 37.45522 | 3895 ft | 20 kts | 24° |
| 2026-04-20 21:30 | -1.26029 | 37.45575 | 3871 ft | 20 kts | 24° |
| 2026-04-20 21:30 | -1.25900 | 37.45628 | 3894 ft | 20 kts | 25° |
| 2026-04-20 21:31 | -1.25856 | 37.45649 | 3906 ft | 8 kts | 23° |